DAL252 KIAD-LOWW
Flight info
| Callsign | DAL252 |
|---|---|
| Flight time | 8h 49m |
| Altitude | 33000 |
| Route | JDUBB4 JDUBB BNTLY SCOOB CRPLR TUGGR JAAWY JETER LINND LACKS JOBOC 4160N 4250N 4340N 4330N 4320N MUDOS ROXER NOLSA MARIO SINDO PIVUS DIBER NETUP STP RAPED PIGOS EKSID NOSTA LUKIM MALUG ARALD ABTAN |
| Aircraft | B744/H-SDE3FGHIM1M2RWXY/LB1 |
Departure
| Time | 2026-04-25 14:59 |
|---|---|
| Airport | Washington Dulles International Airport (KIAD) |
Arrival
| Time | 2026-04-25 23:48 |
|---|---|
| Airport | Vienna International Airport (LOWW) |
| Time | Latitude | Longitude | Altitude | Speed | Heading |
|---|---|---|---|---|---|
| 2026-04-25 13:29 | 38.94588 | -77.45029 | 325 ft | 0 kts | 178° |
| 2026-04-25 14:31 | 38.94594 | -77.45030 | 325 ft | 2 kts | 178° |
| 2026-04-25 14:31 | 38.94614 | -77.45031 | 325 ft | 3 kts | 177° |
| 2026-04-25 14:31 | 38.94630 | -77.45032 | 325 ft | 2 kts | 180° |
| 2026-04-25 14:32 | 38.94645 | -77.45031 | 325 ft | 3 kts | 210° |
| 2026-04-25 14:32 | 38.94657 | -77.45020 | 325 ft | 3 kts | 244° |
| 2026-04-25 14:32 | 38.94663 | -77.44998 | 325 ft | 3 kts | 262° |
| 2026-04-25 14:32 | 38.94665 | -77.44973 | 325 ft | 2 kts | 270° |
| 2026-04-25 14:33 | 38.94665 | -77.44962 | 325 ft | 1 kts | 271° |
| 2026-04-25 14:33 | 38.94665 | -77.44961 | 325 ft | 0 kts | 270° |
| 2026-04-25 14:36 | 38.94665 | -77.44977 | 325 ft | 6 kts | 270° |
| 2026-04-25 14:36 | 38.94666 | -77.45089 | 325 ft | 18 kts | 270° |
| 2026-04-25 14:37 | 38.94666 | -77.45216 | 325 ft | 13 kts | 270° |
| 2026-04-25 14:37 | 38.94667 | -77.45332 | 325 ft | 13 kts | 270° |
| 2026-04-25 14:37 | 38.94668 | -77.45442 | 325 ft | 8 kts | 271° |
| 2026-04-25 14:37 | 38.94669 | -77.45459 | 325 ft | 0 kts | 271° |
| 2026-04-25 14:39 | 38.94669 | -77.45486 | 325 ft | 9 kts | 270° |
| 2026-04-25 14:39 | 38.94668 | -77.45574 | 325 ft | 5 kts | 263° |
| 2026-04-25 14:39 | 38.94646 | -77.45605 | 325 ft | 5 kts | 200° |
| 2026-04-25 14:40 | 38.94612 | -77.45613 | 325 ft | 5 kts | 184° |
| 2026-04-25 14:40 | 38.94590 | -77.45614 | 325 ft | 5 kts | 183° |
| 2026-04-25 14:40 | 38.94527 | -77.45614 | 325 ft | 15 kts | 180° |
| 2026-04-25 14:40 | 38.94347 | -77.45616 | 325 ft | 22 kts | 179° |
| 2026-04-25 14:41 | 38.94246 | -77.45617 | 325 ft | 19 kts | 181° |
| 2026-04-25 14:41 | 38.94081 | -77.45619 | 325 ft | 17 kts | 180° |
| 2026-04-25 14:41 | 38.93963 | -77.45621 | 325 ft | 16 kts | 180° |
| 2026-04-25 14:41 | 38.93887 | -77.45621 | 325 ft | 16 kts | 180° |
| 2026-04-25 14:42 | 38.93781 | -77.45623 | 325 ft | 15 kts | 181° |
| 2026-04-25 14:42 | 38.93717 | -77.45617 | 325 ft | 9 kts | 148° |
| 2026-04-25 14:42 | 38.93674 | -77.45565 | 325 ft | 4 kts | 129° |
| 2026-04-25 14:42 | 38.93668 | -77.45556 | 325 ft | 0 kts | 129° |
| 2026-04-25 14:44 | 38.93648 | -77.45525 | 325 ft | 8 kts | 135° |
| 2026-04-25 14:44 | 38.93598 | -77.45501 | 325 ft | 6 kts | 184° |
| 2026-04-25 14:45 | 38.93561 | -77.45514 | 325 ft | 3 kts | 199° |
| 2026-04-25 14:45 | 38.93559 | -77.45515 | 325 ft | 0 kts | 199° |
| 2026-04-25 14:54 | 38.93550 | -77.45519 | 325 ft | 6 kts | 199° |
| 2026-04-25 14:54 | 38.93502 | -77.45542 | 325 ft | 7 kts | 202° |
| 2026-04-25 14:54 | 38.93479 | -77.45553 | 325 ft | 0 kts | 200° |
| 2026-04-25 14:56 | 38.93440 | -77.45573 | 325 ft | 12 kts | 201° |
| 2026-04-25 14:56 | 38.93388 | -77.45622 | 325 ft | 9 kts | 248° |
| 2026-04-25 14:57 | 38.93395 | -77.45689 | 325 ft | 0 kts | 289° |
| 2026-04-25 14:58 | 38.93396 | -77.45693 | 325 ft | 4 kts | 289° |
| 2026-04-25 14:58 | 38.93447 | -77.45872 | 325 ft | 51 kts | 291° |
| 2026-04-25 14:58 | 38.93667 | -77.46616 | 325 ft | 125 kts | 290° |
| 2026-04-25 14:59 | 38.94052 | -77.47941 | 344 ft | 187 kts | 291° |
| 2026-04-25 14:59 | 38.94529 | -77.49569 | 954 ft | 198 kts | 291° |
| 2026-04-25 14:59 | 38.94732 | -77.51316 | 1725 ft | 206 kts | 262° |
| 2026-04-25 14:59 | 38.94101 | -77.52951 | 2325 ft | 209 kts | 229° |
| 2026-04-25 15:00 | 38.92804 | -77.53963 | 2325 ft | 226 kts | 198° |
| 2026-04-25 15:00 | 38.91264 | -77.54383 | 2619 ft | 231 kts | 189° |
| 2026-04-25 15:00 | 38.89625 | -77.54710 | 2906 ft | 241 kts | 188° |
| 2026-04-25 15:00 | 38.87986 | -77.55067 | 3453 ft | 237 kts | 188° |
| 2026-04-25 15:01 | 38.86284 | -77.55095 | 3496 ft | 254 kts | 174° |
| 2026-04-25 15:01 | 38.84461 | -77.54830 | 3180 ft | 266 kts | 174° |
| 2026-04-25 15:01 | 38.82620 | -77.54754 | 3180 ft | 266 kts | 180° |
| 2026-04-25 15:01 | 38.80785 | -77.54873 | 3347 ft | 262 kts | 182° |
| 2026-04-25 15:02 | 38.78962 | -77.55015 | 3629 ft | 261 kts | 182° |
| 2026-04-25 15:02 | 38.77128 | -77.55128 | 3674 ft | 264 kts | 182° |
| 2026-04-25 15:02 | 38.75291 | -77.55250 | 3887 ft | 263 kts | 183° |
| 2026-04-25 15:02 | 38.73444 | -77.55395 | 3849 ft | 266 kts | 183° |
| 2026-04-25 15:03 | 38.71619 | -77.55517 | 4041 ft | 263 kts | 182° |
| 2026-04-25 15:03 | 38.69775 | -77.55622 | 4025 ft | 265 kts | 182° |
| 2026-04-25 15:03 | 38.67888 | -77.55714 | 4002 ft | 278 kts | 182° |
| 2026-04-25 15:03 | 38.65966 | -77.55810 | 3931 ft | 282 kts | 182° |
| 2026-04-25 15:04 | 38.64012 | -77.55940 | 4089 ft | 283 kts | 183° |
| 2026-04-25 15:04 | 38.62026 | -77.56089 | 3928 ft | 284 kts | 182° |
| 2026-04-25 15:04 | 38.60062 | -77.56150 | 3992 ft | 284 kts | 180° |
| 2026-04-25 15:04 | 38.58070 | -77.56154 | 4243 ft | 287 kts | 180° |
| 2026-04-25 15:05 | 38.56085 | -77.56172 | 5078 ft | 285 kts | 180° |
| 2026-04-25 15:05 | 38.54100 | -77.56211 | 5817 ft | 286 kts | 181° |
| 2026-04-25 15:05 | 38.52089 | -77.56263 | 6421 ft | 293 kts | 182° |
| 2026-04-25 15:06 | 38.47968 | -77.56384 | 7771 ft | 297 kts | 183° |
| 2026-04-25 15:06 | 38.45886 | -77.56448 | 8397 ft | 301 kts | 183° |
| 2026-04-25 15:06 | 38.43771 | -77.56513 | 9026 ft | 305 kts | 184° |
| 2026-04-25 15:06 | 38.41642 | -77.56600 | 9720 ft | 305 kts | 187° |
| 2026-04-25 15:07 | 38.39568 | -77.57145 | 10326 ft | 308 kts | 200° |
| 2026-04-25 15:07 | 38.37584 | -77.58326 | 10560 ft | 325 kts | 211° |
| 2026-04-25 15:07 | 38.35625 | -77.59943 | 10720 ft | 346 kts | 216° |
| 2026-04-25 15:07 | 38.33606 | -77.61787 | 10883 ft | 368 kts | 216° |
| 2026-04-25 15:08 | 38.31340 | -77.63489 | 11053 ft | 391 kts | 203° |
| 2026-04-25 15:08 | 38.28616 | -77.64257 | 11378 ft | 409 kts | 186° |
| 2026-04-25 15:08 | 38.25743 | -77.64244 | 12127 ft | 416 kts | 178° |
| 2026-04-25 15:08 | 38.22838 | -77.63803 | 12860 ft | 424 kts | 173° |
| 2026-04-25 15:09 | 38.19906 | -77.63130 | 13500 ft | 433 kts | 171° |
| 2026-04-25 15:09 | 38.16922 | -77.62435 | 14146 ft | 440 kts | 172° |
| 2026-04-25 15:09 | 38.10800 | -77.61190 | 15491 ft | 452 kts | 171° |
| 2026-04-25 15:10 | 38.08783 | -77.60470 | 15893 ft | 458 kts | 160° |
| 2026-04-25 15:10 | 38.05130 | -77.57585 | 16740 ft | 469 kts | 140° |
| 2026-04-25 15:10 | 38.00901 | -77.51148 | 17947 ft | 483 kts | 124° |
| 2026-04-25 15:11 | 37.99141 | -77.47504 | 18580 ft | 486 kts | 121° |
| 2026-04-25 15:11 | 37.97470 | -77.43760 | 19243 ft | 490 kts | 120° |
| 2026-04-25 15:11 | 37.95783 | -77.39975 | 19813 ft | 495 kts | 120° |
| 2026-04-25 15:12 | 37.92621 | -77.33128 | 20835 ft | 502 kts | 121° |
| 2026-04-25 15:12 | 37.92160 | -77.32145 | 20976 ft | 503 kts | 121° |
| 2026-04-25 15:12 | 37.91556 | -77.30861 | 21158 ft | 504 kts | 121° |
| 2026-04-25 15:13 | 37.88543 | -77.24493 | 22031 ft | 511 kts | 121° |
| 2026-04-25 15:13 | 37.84888 | -77.16699 | 22997 ft | 518 kts | 121° |
| 2026-04-25 15:13 | 37.83035 | -77.12771 | 23461 ft | 522 kts | 121° |
| 2026-04-25 15:14 | 37.81161 | -77.08817 | 23902 ft | 525 kts | 121° |
| 2026-04-25 15:14 | 37.79273 | -77.04847 | 24322 ft | 528 kts | 121° |
| 2026-04-25 15:14 | 37.77370 | -77.00855 | 24700 ft | 531 kts | 121° |
| 2026-04-25 15:14 | 37.75469 | -76.96857 | 25268 ft | 530 kts | 121° |
| 2026-04-25 15:15 | 37.73575 | -76.92841 | 25631 ft | 534 kts | 121° |
| 2026-04-25 15:15 | 37.71646 | -76.88801 | 25824 ft | 540 kts | 121° |
| 2026-04-25 15:15 | 37.69698 | -76.84744 | 26168 ft | 542 kts | 121° |
| 2026-04-25 15:15 | 37.67733 | -76.80662 | 26426 ft | 545 kts | 121° |
| 2026-04-25 15:16 | 37.65761 | -76.76573 | 26834 ft | 545 kts | 121° |
| 2026-04-25 15:16 | 37.63780 | -76.72468 | 27082 ft | 549 kts | 121° |
| 2026-04-25 15:16 | 37.60373 | -76.63864 | 27539 ft | 553 kts | 105° |
| 2026-04-25 15:17 | 37.59511 | -76.54271 | 28205 ft | 550 kts | 90° |
| 2026-04-25 15:17 | 37.59561 | -76.49446 | 28457 ft | 550 kts | 86° |
| 2026-04-25 15:17 | 37.59769 | -76.44641 | 28708 ft | 549 kts | 85° |
| 2026-04-25 15:18 | 37.59975 | -76.39830 | 28897 ft | 549 kts | 85° |
| 2026-04-25 15:18 | 37.60413 | -76.25392 | 28932 ft | 551 kts | 86° |
| 2026-04-25 15:19 | 37.60604 | -76.18978 | 28931 ft | 553 kts | 85° |
| 2026-04-25 15:19 | 37.62060 | -76.06166 | 28935 ft | 550 kts | 76° |
| 2026-04-25 15:20 | 37.63517 | -75.96828 | 28939 ft | 537 kts | 77° |
| 2026-04-25 15:20 | 37.64856 | -75.87631 | 28941 ft | 529 kts | 77° |
| 2026-04-25 15:21 | 37.66137 | -75.78502 | 28941 ft | 529 kts | 77° |
| 2026-04-25 15:21 | 37.67414 | -75.69356 | 28941 ft | 530 kts | 77° |
| 2026-04-25 15:22 | 37.69925 | -75.60757 | 28950 ft | 523 kts | 54° |
| 2026-04-25 15:22 | 37.74448 | -75.53460 | 28955 ft | 528 kts | 45° |
| 2026-04-25 15:23 | 37.79595 | -75.46889 | 28966 ft | 524 kts | 41° |
| 2026-04-25 15:23 | 37.84792 | -75.40442 | 28977 ft | 523 kts | 41° |
| 2026-04-25 15:24 | 37.89938 | -75.33928 | 28979 ft | 524 kts | 42° |
| 2026-04-25 15:24 | 37.93347 | -75.29597 | 28979 ft | 523 kts | 41° |
| 2026-04-25 15:25 | 37.99365 | -75.21993 | 28987 ft | 522 kts | 41° |
| 2026-04-25 15:25 | 38.05377 | -75.14353 | 28993 ft | 524 kts | 41° |
| 2026-04-25 15:26 | 38.09653 | -75.08904 | 29000 ft | 524 kts | 41° |
| 2026-04-25 15:26 | 38.14772 | -75.02325 | 29005 ft | 524 kts | 41° |
| 2026-04-25 15:27 | 38.19892 | -74.95727 | 29007 ft | 524 kts | 41° |
| 2026-04-25 15:28 | 38.27257 | -74.85503 | 29010 ft | 527 kts | 50° |
| 2026-04-25 15:28 | 38.31274 | -74.77640 | 29009 ft | 531 kts | 55° |
| 2026-04-25 15:29 | 38.35076 | -74.69572 | 29017 ft | 531 kts | 55° |
| 2026-04-25 15:29 | 38.38936 | -74.61540 | 29022 ft | 531 kts | 54° |
| 2026-04-25 15:30 | 38.42804 | -74.53527 | 29024 ft | 530 kts | 54° |
| 2026-04-25 15:30 | 38.46698 | -74.45542 | 29027 ft | 530 kts | 54° |
| 2026-04-25 15:31 | 38.50586 | -74.37543 | 29030 ft | 529 kts | 54° |
| 2026-04-25 15:31 | 38.54474 | -74.29550 | 29033 ft | 530 kts | 54° |
| 2026-04-25 15:32 | 38.58338 | -74.21525 | 29031 ft | 530 kts | 54° |
| 2026-04-25 15:32 | 38.62161 | -74.13524 | 29034 ft | 530 kts | 54° |
| 2026-04-25 15:33 | 38.67922 | -74.01440 | 29037 ft | 530 kts | 54° |
| 2026-04-25 15:33 | 38.71277 | -73.92988 | 29052 ft | 534 kts | 62° |
| 2026-04-25 15:34 | 38.74096 | -73.84153 | 29055 ft | 537 kts | 64° |
| 2026-04-25 15:34 | 38.76423 | -73.76778 | 29057 ft | 537 kts | 64° |
| 2026-04-25 15:35 | 38.81127 | -73.62082 | 29061 ft | 536 kts | 63° |
| 2026-04-25 15:36 | 38.85436 | -73.48853 | 29064 ft | 536 kts | 63° |
| 2026-04-25 15:36 | 38.88302 | -73.40011 | 29065 ft | 536 kts | 63° |
| 2026-04-25 15:37 | 38.91151 | -73.31148 | 29066 ft | 537 kts | 63° |
| 2026-04-25 15:37 | 38.93987 | -73.22283 | 29068 ft | 537 kts | 63° |
| 2026-04-25 15:38 | 38.96818 | -73.13405 | 29087 ft | 536 kts | 63° |
| 2026-04-25 15:38 | 38.99641 | -73.04522 | 29093 ft | 537 kts | 63° |
| 2026-04-25 15:39 | 39.02459 | -72.95623 | 29096 ft | 537 kts | 63° |
| 2026-04-25 15:39 | 39.05267 | -72.86729 | 29099 ft | 537 kts | 63° |
| 2026-04-25 15:40 | 39.07596 | -72.79330 | 29102 ft | 537 kts | 63° |
| 2026-04-25 15:40 | 39.10849 | -72.68965 | 29120 ft | 537 kts | 63° |
| 2026-04-25 15:41 | 39.13637 | -72.60047 | 29122 ft | 537 kts | 63° |
| 2026-04-25 15:41 | 39.16419 | -72.51120 | 29123 ft | 537 kts | 63° |
| 2026-04-25 15:42 | 39.19196 | -72.42185 | 29129 ft | 537 kts | 63° |
| 2026-04-25 15:42 | 39.21963 | -72.33247 | 29132 ft | 536 kts | 63° |
| 2026-04-25 15:43 | 39.24726 | -72.24297 | 29134 ft | 537 kts | 63° |
| 2026-04-25 15:43 | 39.27480 | -72.15344 | 29137 ft | 537 kts | 63° |
| 2026-04-25 15:44 | 39.30253 | -72.06381 | 29138 ft | 537 kts | 62° |
| 2026-04-25 15:44 | 39.32990 | -71.97467 | 29140 ft | 538 kts | 63° |
| 2026-04-25 15:45 | 39.35717 | -71.88467 | 29144 ft | 538 kts | 62° |
| 2026-04-25 15:45 | 39.37995 | -71.80927 | 29145 ft | 537 kts | 62° |
| 2026-04-25 15:46 | 39.41060 | -71.70425 | 29148 ft | 539 kts | 66° |
| 2026-04-25 15:46 | 39.42968 | -71.60989 | 29149 ft | 545 kts | 71° |
| 2026-04-25 15:47 | 39.44614 | -71.51400 | 29139 ft | 546 kts | 71° |
| 2026-04-25 15:47 | 39.46297 | -71.41829 | 29141 ft | 545 kts | 71° |
| 2026-04-25 15:48 | 39.47996 | -71.32264 | 29142 ft | 545 kts | 71° |
| 2026-04-25 15:48 | 39.49731 | -71.22721 | 29448 ft | 543 kts | 70° |
| 2026-04-25 15:49 | 39.50609 | -71.17971 | 29920 ft | 541 kts | 70° |
| 2026-04-25 15:49 | 39.51473 | -71.13239 | 30308 ft | 541 kts | 70° |
| 2026-04-25 15:49 | 39.52319 | -71.08559 | 30686 ft | 540 kts | 70° |
| 2026-04-25 15:49 | 39.53170 | -71.03820 | 31085 ft | 539 kts | 70° |
| 2026-04-25 15:50 | 39.54013 | -70.99101 | 31530 ft | 536 kts | 70° |
| 2026-04-25 15:50 | 39.54851 | -70.94392 | 31841 ft | 537 kts | 70° |
| 2026-04-25 15:50 | 39.55686 | -70.89689 | 32206 ft | 535 kts | 70° |
| 2026-04-25 15:50 | 39.56518 | -70.84985 | 32546 ft | 535 kts | 70° |
| 2026-04-25 15:51 | 39.57347 | -70.80285 | 32795 ft | 534 kts | 70° |
| 2026-04-25 15:51 | 39.57907 | -70.77104 | 32965 ft | 534 kts | 70° |
| 2026-04-25 15:51 | 39.58998 | -70.70887 | 33149 ft | 534 kts | 69° |
| 2026-04-25 15:51 | 39.59819 | -70.66198 | 33154 ft | 534 kts | 69° |
| 2026-04-25 15:52 | 39.61455 | -70.56812 | 33147 ft | 532 kts | 69° |
| 2026-04-25 15:52 | 39.63081 | -70.47440 | 33146 ft | 533 kts | 69° |
| 2026-04-25 15:53 | 39.64699 | -70.38064 | 33146 ft | 532 kts | 69° |
| 2026-04-25 15:53 | 39.66299 | -70.28742 | 33147 ft | 532 kts | 69° |
| 2026-04-25 15:54 | 39.67903 | -70.19354 | 33148 ft | 533 kts | 69° |
| 2026-04-25 15:54 | 39.69498 | -70.09965 | 33148 ft | 532 kts | 69° |
| 2026-04-25 15:55 | 39.71084 | -70.00580 | 33148 ft | 531 kts | 69° |
| 2026-04-25 15:55 | 39.72663 | -69.91195 | 33144 ft | 532 kts | 69° |
| 2026-04-25 15:56 | 39.74234 | -69.81800 | 33144 ft | 532 kts | 69° |
| 2026-04-25 15:56 | 39.75798 | -69.72398 | 33144 ft | 532 kts | 69° |
| 2026-04-25 15:57 | 39.77355 | -69.62992 | 33143 ft | 531 kts | 69° |
| 2026-04-25 15:57 | 39.78901 | -69.53601 | 33143 ft | 531 kts | 69° |
| 2026-04-25 15:58 | 39.80439 | -69.44206 | 33144 ft | 531 kts | 69° |
| 2026-04-25 15:58 | 39.81969 | -69.34811 | 33144 ft | 530 kts | 69° |
| 2026-04-25 15:59 | 39.83491 | -69.25419 | 33144 ft | 530 kts | 69° |
| 2026-04-25 15:59 | 39.84991 | -69.16109 | 33144 ft | 529 kts | 69° |
| 2026-04-25 16:00 | 39.85148 | -69.15131 | 33144 ft | 529 kts | 69° |
| 2026-04-25 16:00 | 39.86413 | -69.07235 | 33144 ft | 528 kts | 69° |
| 2026-04-25 16:01 | 39.87906 | -68.97869 | 33139 ft | 529 kts | 69° |
| 2026-04-25 16:01 | 39.89391 | -68.88500 | 33138 ft | 528 kts | 69° |
| 2026-04-25 16:02 | 39.90867 | -68.79142 | 33137 ft | 527 kts | 68° |
| 2026-04-25 16:02 | 39.92332 | -68.69795 | 33137 ft | 526 kts | 68° |
| 2026-04-25 16:03 | 39.93794 | -68.60447 | 33136 ft | 526 kts | 68° |
| 2026-04-25 16:03 | 39.95267 | -68.51182 | 33136 ft | 525 kts | 68° |
| 2026-04-25 16:04 | 39.96691 | -68.41875 | 33135 ft | 524 kts | 68° |
| 2026-04-25 16:04 | 39.98104 | -68.32558 | 33128 ft | 523 kts | 68° |
| 2026-04-25 16:05 | 39.99512 | -68.23264 | 33125 ft | 523 kts | 67° |
| 2026-04-25 16:06 | 40.01177 | -68.09155 | 33123 ft | 527 kts | 72° |
| 2026-04-25 16:06 | 40.02068 | -67.99637 | 33121 ft | 529 kts | 71° |
| 2026-04-25 16:07 | 40.02990 | -67.90116 | 33119 ft | 529 kts | 71° |
| 2026-04-25 16:07 | 40.03916 | -67.80597 | 33118 ft | 528 kts | 71° |
| 2026-04-25 16:08 | 40.04869 | -67.71091 | 33117 ft | 528 kts | 71° |
| 2026-04-25 16:08 | 40.05831 | -67.61592 | 33114 ft | 528 kts | 71° |
| 2026-04-25 16:09 | 40.06761 | -67.52062 | 33113 ft | 530 kts | 71° |
| 2026-04-25 16:09 | 40.07675 | -67.42564 | 33111 ft | 530 kts | 72° |
| 2026-04-25 16:10 | 40.08625 | -67.33000 | 33109 ft | 532 kts | 72° |
| 2026-04-25 16:10 | 40.09524 | -67.23387 | 33108 ft | 534 kts | 72° |
| 2026-04-25 16:11 | 40.10407 | -67.13770 | 33106 ft | 532 kts | 72° |
| 2026-04-25 16:11 | 40.11287 | -67.04157 | 33105 ft | 534 kts | 72° |
| 2026-04-25 16:12 | 40.12414 | -66.94619 | 33103 ft | 529 kts | 68° |
| 2026-04-25 16:12 | 40.13918 | -66.85232 | 33101 ft | 527 kts | 67° |
| 2026-04-25 16:13 | 40.15400 | -66.75847 | 33099 ft | 527 kts | 68° |
| 2026-04-25 16:13 | 40.16606 | -66.68041 | 33098 ft | 527 kts | 68° |
| 2026-04-25 16:14 | 40.18043 | -66.58631 | 33097 ft | 528 kts | 68° |
| 2026-04-25 16:14 | 40.19524 | -66.49228 | 33095 ft | 528 kts | 67° |
| 2026-04-25 16:15 | 40.21001 | -66.39824 | 33097 ft | 528 kts | 67° |
| 2026-04-25 16:15 | 40.22443 | -66.30440 | 33097 ft | 529 kts | 68° |
| 2026-04-25 16:16 | 40.23879 | -66.20983 | 33095 ft | 530 kts | 68° |
| 2026-04-25 16:16 | 40.25308 | -66.11504 | 33093 ft | 530 kts | 68° |
| 2026-04-25 16:17 | 40.26728 | -66.02015 | 33053 ft | 531 kts | 68° |
| 2026-04-25 16:17 | 40.28140 | -65.92531 | 33034 ft | 530 kts | 68° |
| 2026-04-25 16:18 | 40.29542 | -65.83050 | 33033 ft | 530 kts | 68° |
| 2026-04-25 16:18 | 40.30936 | -65.73564 | 33033 ft | 530 kts | 68° |
| 2026-04-25 16:19 | 40.32324 | -65.64081 | 33033 ft | 530 kts | 69° |
| 2026-04-25 16:19 | 40.33700 | -65.54600 | 33033 ft | 529 kts | 69° |
| 2026-04-25 16:20 | 40.35739 | -65.40463 | 33032 ft | 528 kts | 70° |
| 2026-04-25 16:21 | 40.37763 | -65.26288 | 33032 ft | 526 kts | 70° |
| 2026-04-25 16:21 | 40.39099 | -65.16871 | 33032 ft | 524 kts | 71° |
| 2026-04-25 16:22 | 40.40424 | -65.07461 | 33032 ft | 524 kts | 71° |
| 2026-04-25 16:22 | 40.41740 | -64.98069 | 33022 ft | 522 kts | 71° |
| 2026-04-25 16:23 | 40.43044 | -64.88700 | 33015 ft | 521 kts | 72° |
| 2026-04-25 16:23 | 40.44337 | -64.79345 | 32989 ft | 521 kts | 72° |
| 2026-04-25 16:24 | 40.45623 | -64.69989 | 32988 ft | 520 kts | 72° |
| 2026-04-25 16:24 | 40.46901 | -64.60634 | 32972 ft | 520 kts | 72° |
| 2026-04-25 16:25 | 40.48164 | -64.51332 | 32971 ft | 521 kts | 73° |
| 2026-04-25 16:25 | 40.49428 | -64.41958 | 32970 ft | 521 kts | 73° |
| 2026-04-25 16:26 | 40.50685 | -64.32578 | 32969 ft | 521 kts | 73° |
| 2026-04-25 16:26 | 40.51934 | -64.23202 | 32969 ft | 521 kts | 73° |
| 2026-04-25 16:27 | 40.53175 | -64.13818 | 32969 ft | 521 kts | 73° |
| 2026-04-25 16:27 | 40.54409 | -64.04435 | 32968 ft | 521 kts | 73° |
| 2026-04-25 16:28 | 40.55637 | -63.95036 | 32968 ft | 521 kts | 73° |
| 2026-04-25 16:28 | 40.56851 | -63.85681 | 32967 ft | 518 kts | 74° |
| 2026-04-25 16:29 | 40.58055 | -63.76337 | 32967 ft | 518 kts | 74° |
| 2026-04-25 16:29 | 40.59251 | -63.66993 | 32966 ft | 517 kts | 75° |
| 2026-04-25 16:30 | 40.60437 | -63.57667 | 32966 ft | 516 kts | 75° |
| 2026-04-25 16:30 | 40.61605 | -63.48422 | 32965 ft | 515 kts | 75° |
| 2026-04-25 16:31 | 40.62772 | -63.39125 | 32904 ft | 514 kts | 75° |
| 2026-04-25 16:31 | 40.63929 | -63.29838 | 32897 ft | 513 kts | 75° |
| 2026-04-25 16:32 | 40.65077 | -63.20573 | 32843 ft | 512 kts | 75° |
| 2026-04-25 16:32 | 40.66213 | -63.11331 | 32837 ft | 511 kts | 76° |
| 2026-04-25 16:33 | 40.67341 | -63.02093 | 32835 ft | 510 kts | 76° |
| 2026-04-25 16:33 | 40.68461 | -62.92860 | 32835 ft | 510 kts | 76° |
| 2026-04-25 16:34 | 40.69573 | -62.83631 | 32834 ft | 509 kts | 76° |
| 2026-04-25 16:34 | 40.70677 | -62.74404 | 32833 ft | 509 kts | 76° |
| 2026-04-25 16:35 | 40.71766 | -62.65236 | 32831 ft | 509 kts | 76° |
| 2026-04-25 16:35 | 40.72852 | -62.56024 | 32830 ft | 509 kts | 76° |
| 2026-04-25 16:36 | 40.73932 | -62.46809 | 32829 ft | 509 kts | 76° |
| 2026-04-25 16:36 | 40.75005 | -62.37576 | 32828 ft | 509 kts | 76° |
| 2026-04-25 16:37 | 40.76072 | -62.28341 | 32827 ft | 509 kts | 77° |
| 2026-04-25 16:37 | 40.77130 | -62.19104 | 32825 ft | 509 kts | 77° |
| 2026-04-25 16:38 | 40.78179 | -62.09873 | 32824 ft | 508 kts | 77° |
| 2026-04-25 16:38 | 40.79220 | -62.00650 | 32823 ft | 508 kts | 77° |
| 2026-04-25 16:39 | 40.80255 | -61.91428 | 32822 ft | 507 kts | 77° |
| 2026-04-25 16:39 | 40.81279 | -61.82224 | 32821 ft | 506 kts | 78° |
| 2026-04-25 16:40 | 40.82294 | -61.73033 | 32819 ft | 506 kts | 78° |
| 2026-04-25 16:40 | 40.83302 | -61.63839 | 32818 ft | 506 kts | 78° |
| 2026-04-25 16:41 | 40.84302 | -61.54648 | 32817 ft | 505 kts | 78° |
| 2026-04-25 16:41 | 40.85786 | -61.40878 | 32816 ft | 505 kts | 78° |
| 2026-04-25 16:42 | 40.86766 | -61.31700 | 32814 ft | 504 kts | 78° |
| 2026-04-25 16:42 | 40.87731 | -61.22589 | 32813 ft | 504 kts | 78° |
| 2026-04-25 16:43 | 40.88697 | -61.13405 | 32812 ft | 504 kts | 79° |
| 2026-04-25 16:43 | 40.89653 | -61.04234 | 32811 ft | 504 kts | 79° |
| 2026-04-25 16:44 | 40.90603 | -60.95058 | 32809 ft | 504 kts | 79° |
| 2026-04-25 16:44 | 40.91544 | -60.85889 | 32808 ft | 503 kts | 79° |
| 2026-04-25 16:45 | 40.92479 | -60.76712 | 32793 ft | 504 kts | 79° |
| 2026-04-25 16:45 | 40.93407 | -60.67524 | 32776 ft | 503 kts | 79° |
| 2026-04-25 16:46 | 40.94321 | -60.58405 | 32775 ft | 503 kts | 79° |
| 2026-04-25 16:46 | 40.94931 | -60.52270 | 32775 ft | 503 kts | 79° |
| 2026-04-25 16:47 | 40.96151 | -60.40055 | 32775 ft | 503 kts | 79° |
| 2026-04-25 16:47 | 40.97075 | -60.30875 | 32774 ft | 503 kts | 80° |
| 2026-04-25 16:48 | 40.97954 | -60.21690 | 32774 ft | 503 kts | 80° |
| 2026-04-25 16:48 | 40.98820 | -60.12513 | 32774 ft | 502 kts | 80° |
| 2026-04-25 16:49 | 40.99685 | -60.03341 | 32773 ft | 502 kts | 80° |
| 2026-04-25 16:49 | 41.00737 | -59.94204 | 32727 ft | 502 kts | 77° |
| 2026-04-25 16:50 | 41.02068 | -59.85180 | 32716 ft | 502 kts | 77° |
| 2026-04-25 16:50 | 41.03379 | -59.76116 | 32715 ft | 501 kts | 77° |
| 2026-04-25 16:51 | 41.04662 | -59.67035 | 32714 ft | 501 kts | 77° |
| 2026-04-25 16:51 | 41.05513 | -59.60949 | 32714 ft | 502 kts | 77° |
| 2026-04-25 16:52 | 41.07244 | -59.48852 | 32713 ft | 502 kts | 77° |
| 2026-04-25 16:52 | 41.08556 | -59.39775 | 32712 ft | 501 kts | 77° |
| 2026-04-25 16:53 | 41.10475 | -59.26117 | 32711 ft | 502 kts | 77° |
| 2026-04-25 16:54 | 41.11737 | -59.17010 | 32710 ft | 503 kts | 77° |
| 2026-04-25 16:54 | 41.12983 | -59.07947 | 32710 ft | 503 kts | 77° |
| 2026-04-25 16:55 | 41.14230 | -58.98812 | 32709 ft | 503 kts | 78° |
| 2026-04-25 16:55 | 41.15470 | -58.89670 | 32708 ft | 503 kts | 78° |
| 2026-04-25 16:56 | 41.16702 | -58.80524 | 32707 ft | 504 kts | 78° |
| 2026-04-25 16:56 | 41.17928 | -58.71374 | 32707 ft | 504 kts | 78° |
| 2026-04-25 16:57 | 41.19147 | -58.62215 | 32706 ft | 504 kts | 78° |
| 2026-04-25 16:57 | 41.20358 | -58.53059 | 32705 ft | 503 kts | 78° |
| 2026-04-25 16:58 | 41.21560 | -58.43909 | 32704 ft | 503 kts | 78° |
| 2026-04-25 16:58 | 41.22755 | -58.34754 | 32703 ft | 503 kts | 78° |
| 2026-04-25 16:59 | 41.23743 | -58.27145 | 32702 ft | 502 kts | 78° |
| 2026-04-25 16:59 | 41.24921 | -58.18015 | 32701 ft | 501 kts | 78° |
| 2026-04-25 17:00 | 41.26091 | -58.08887 | 32700 ft | 501 kts | 78° |
| 2026-04-25 17:00 | 41.27254 | -57.99753 | 32699 ft | 501 kts | 78° |
| 2026-04-25 17:01 | 41.28411 | -57.90614 | 32699 ft | 504 kts | 78° |
| 2026-04-25 17:01 | 41.29568 | -57.81403 | 32697 ft | 506 kts | 78° |
| 2026-04-25 17:02 | 41.29862 | -57.79053 | 32697 ft | 506 kts | 79° |
| 2026-04-25 17:02 | 41.30669 | -57.72589 | 32696 ft | 506 kts | 78° |
| 2026-04-25 17:03 | 41.31815 | -57.63347 | 32695 ft | 507 kts | 79° |
| 2026-04-25 17:03 | 41.32956 | -57.54086 | 32694 ft | 507 kts | 79° |
| 2026-04-25 17:04 | 41.34089 | -57.44821 | 32692 ft | 508 kts | 79° |
| 2026-04-25 17:04 | 41.35220 | -57.35518 | 32691 ft | 510 kts | 79° |
| 2026-04-25 17:05 | 41.36346 | -57.26184 | 32690 ft | 511 kts | 79° |
| 2026-04-25 17:05 | 41.38026 | -57.12130 | 32688 ft | 513 kts | 79° |
| 2026-04-25 17:06 | 41.39141 | -57.02722 | 32686 ft | 514 kts | 79° |
| 2026-04-25 17:06 | 41.40251 | -56.93295 | 32685 ft | 516 kts | 79° |
| 2026-04-25 17:07 | 41.41354 | -56.83845 | 32684 ft | 517 kts | 80° |
| 2026-04-25 17:07 | 41.42452 | -56.74374 | 32683 ft | 518 kts | 80° |
| 2026-04-25 17:08 | 41.43545 | -56.64883 | 32681 ft | 518 kts | 80° |
| 2026-04-25 17:08 | 41.44628 | -56.55399 | 32683 ft | 518 kts | 80° |
| 2026-04-25 17:09 | 41.45705 | -56.45895 | 32682 ft | 519 kts | 80° |
| 2026-04-25 17:09 | 41.46776 | -56.36382 | 32681 ft | 518 kts | 80° |
| 2026-04-25 17:10 | 41.47837 | -56.26876 | 32679 ft | 518 kts | 80° |
| 2026-04-25 17:10 | 41.48889 | -56.17377 | 32678 ft | 518 kts | 80° |
| 2026-04-25 17:11 | 41.49927 | -56.07939 | 32670 ft | 517 kts | 80° |
| 2026-04-25 17:11 | 41.50963 | -55.98440 | 32667 ft | 517 kts | 80° |
| 2026-04-25 17:12 | 41.51992 | -55.88937 | 32666 ft | 519 kts | 80° |
| 2026-04-25 17:12 | 41.53018 | -55.79376 | 32663 ft | 521 kts | 81° |
| 2026-04-25 17:13 | 41.53872 | -55.71359 | 32661 ft | 521 kts | 81° |
| 2026-04-25 17:13 | 41.55050 | -55.60217 | 32658 ft | 522 kts | 81° |
| 2026-04-25 17:14 | 41.56057 | -55.50603 | 32656 ft | 524 kts | 81° |
| 2026-04-25 17:14 | 41.57060 | -55.40954 | 32653 ft | 526 kts | 81° |
| 2026-04-25 17:15 | 41.58058 | -55.31265 | 32651 ft | 528 kts | 81° |
| 2026-04-25 17:15 | 41.59054 | -55.21515 | 32585 ft | 530 kts | 81° |
| 2026-04-25 17:16 | 41.60043 | -55.11748 | 32493 ft | 531 kts | 81° |
| 2026-04-25 17:16 | 41.61021 | -55.02018 | 32484 ft | 533 kts | 82° |
| 2026-04-25 17:17 | 41.61999 | -54.92186 | 32485 ft | 535 kts | 82° |
| 2026-04-25 17:17 | 41.62972 | -54.82316 | 32484 ft | 536 kts | 82° |
| 2026-04-25 17:18 | 41.63939 | -54.72423 | 32483 ft | 537 kts | 82° |
| 2026-04-25 17:18 | 41.64899 | -54.62520 | 32482 ft | 538 kts | 82° |
| 2026-04-25 17:19 | 41.65851 | -54.52595 | 32482 ft | 539 kts | 82° |
| 2026-04-25 17:19 | 41.66797 | -54.42650 | 32481 ft | 538 kts | 82° |
| 2026-04-25 17:20 | 41.67733 | -54.32722 | 32480 ft | 538 kts | 82° |
| 2026-04-25 17:20 | 41.68662 | -54.22772 | 32480 ft | 539 kts | 82° |
| 2026-04-25 17:21 | 41.69573 | -54.12908 | 32479 ft | 538 kts | 82° |
| 2026-04-25 17:21 | 41.70482 | -54.02979 | 32479 ft | 538 kts | 82° |
| 2026-04-25 17:22 | 41.71237 | -53.94654 | 32478 ft | 538 kts | 82° |
| 2026-04-25 17:22 | 41.72276 | -53.83096 | 32480 ft | 539 kts | 82° |
| 2026-04-25 17:23 | 41.73162 | -53.73121 | 32484 ft | 540 kts | 83° |
| 2026-04-25 17:23 | 41.74041 | -53.63137 | 32485 ft | 541 kts | 83° |
| 2026-04-25 17:24 | 41.74912 | -53.53132 | 32484 ft | 542 kts | 83° |
| 2026-04-25 17:24 | 41.75779 | -53.43084 | 32484 ft | 544 kts | 83° |
| 2026-04-25 17:25 | 41.76641 | -53.32997 | 32486 ft | 546 kts | 83° |
| 2026-04-25 17:25 | 41.77494 | -53.22883 | 32483 ft | 548 kts | 84° |
| 2026-04-25 17:26 | 41.78341 | -53.12730 | 32483 ft | 549 kts | 84° |
| 2026-04-25 17:26 | 41.79184 | -53.02531 | 32483 ft | 551 kts | 84° |
| 2026-04-25 17:27 | 41.80020 | -52.92297 | 32449 ft | 553 kts | 84° |
| 2026-04-25 17:27 | 41.80576 | -52.85437 | 32416 ft | 553 kts | 84° |
| 2026-04-25 17:28 | 41.81668 | -52.71782 | 32414 ft | 554 kts | 85° |
| 2026-04-25 17:28 | 41.82479 | -52.61515 | 32488 ft | 554 kts | 85° |
| 2026-04-25 17:29 | 41.83280 | -52.51244 | 32528 ft | 554 kts | 85° |
| 2026-04-25 17:29 | 41.84075 | -52.40945 | 32529 ft | 554 kts | 85° |
| 2026-04-25 17:30 | 41.84859 | -52.30661 | 32528 ft | 553 kts | 85° |
| 2026-04-25 17:30 | 41.85632 | -52.20402 | 32528 ft | 553 kts | 85° |
| 2026-04-25 17:31 | 41.86395 | -52.10147 | 32529 ft | 552 kts | 85° |
| 2026-04-25 17:31 | 41.87148 | -51.99906 | 32528 ft | 552 kts | 85° |
| 2026-04-25 17:32 | 41.87893 | -51.89649 | 32529 ft | 552 kts | 85° |
| 2026-04-25 17:32 | 41.88624 | -51.79456 | 32529 ft | 553 kts | 86° |
| 2026-04-25 17:33 | 41.89352 | -51.69177 | 32529 ft | 553 kts | 86° |
| 2026-04-25 17:33 | 41.90072 | -51.58874 | 32529 ft | 555 kts | 86° |
| 2026-04-25 17:34 | 41.90785 | -51.48539 | 32530 ft | 557 kts | 86° |
| 2026-04-25 17:34 | 41.91492 | -51.38165 | 32530 ft | 559 kts | 86° |
| 2026-04-25 17:35 | 41.92193 | -51.27750 | 32533 ft | 561 kts | 87° |
| 2026-04-25 17:35 | 41.92884 | -51.17291 | 32531 ft | 563 kts | 87° |
| 2026-04-25 17:36 | 41.93570 | -51.06794 | 32532 ft | 565 kts | 87° |
| 2026-04-25 17:36 | 41.94248 | -50.96268 | 32533 ft | 566 kts | 87° |
| 2026-04-25 17:37 | 41.94917 | -50.85720 | 32534 ft | 567 kts | 88° |
| 2026-04-25 17:37 | 41.95579 | -50.75147 | 32534 ft | 568 kts | 88° |
| 2026-04-25 17:38 | 41.96012 | -50.68133 | 32519 ft | 569 kts | 88° |
| 2026-04-25 17:38 | 41.96870 | -50.54039 | 32516 ft | 568 kts | 88° |
| 2026-04-25 17:39 | 41.97508 | -50.43376 | 32518 ft | 569 kts | 88° |
| 2026-04-25 17:39 | 41.98168 | -50.32852 | 32519 ft | 569 kts | 89° |
| 2026-04-25 17:40 | 41.98770 | -50.22259 | 32520 ft | 568 kts | 89° |
| 2026-04-25 17:40 | 41.99356 | -50.11676 | 32521 ft | 567 kts | 89° |
| 2026-04-25 17:41 | 41.99961 | -50.01099 | 32518 ft | 568 kts | 87° |
| 2026-04-25 17:41 | 42.01201 | -49.90597 | 32524 ft | 570 kts | 81° |
| 2026-04-25 17:42 | 42.02775 | -49.80130 | 32524 ft | 571 kts | 81° |
| 2026-04-25 17:42 | 42.04290 | -49.69648 | 32525 ft | 570 kts | 81° |
| 2026-04-25 17:43 | 42.05516 | -49.60946 | 32526 ft | 569 kts | 82° |
| 2026-04-25 17:43 | 42.07253 | -49.48790 | 32527 ft | 569 kts | 81° |
| 2026-04-25 17:44 | 42.08770 | -49.38333 | 32529 ft | 569 kts | 82° |
| 2026-04-25 17:44 | 42.10007 | -49.29574 | 32530 ft | 568 kts | 82° |
| 2026-04-25 17:45 | 42.11216 | -49.20900 | 32531 ft | 567 kts | 82° |
| 2026-04-25 17:45 | 42.12902 | -49.08688 | 32531 ft | 567 kts | 82° |
| 2026-04-25 17:46 | 42.14329 | -48.98242 | 32534 ft | 567 kts | 83° |
| 2026-04-25 17:46 | 42.15740 | -48.87842 | 32535 ft | 569 kts | 83° |
| 2026-04-25 17:47 | 42.17154 | -48.77344 | 32537 ft | 569 kts | 83° |
| 2026-04-25 17:47 | 42.18560 | -48.66834 | 32539 ft | 570 kts | 83° |
| 2026-04-25 17:48 | 42.20656 | -48.51025 | 32541 ft | 572 kts | 83° |
| 2026-04-25 17:49 | 42.22047 | -48.40421 | 32543 ft | 574 kts | 83° |
| 2026-04-25 17:49 | 42.23431 | -48.29805 | 32544 ft | 574 kts | 84° |
| 2026-04-25 17:50 | 42.24804 | -48.19187 | 32547 ft | 575 kts | 84° |
| 2026-04-25 17:50 | 42.26170 | -48.08542 | 32549 ft | 576 kts | 84° |
| 2026-04-25 17:51 | 42.27527 | -47.97888 | 32551 ft | 575 kts | 84° |
| 2026-04-25 17:51 | 42.28875 | -47.87225 | 32554 ft | 576 kts | 84° |
| 2026-04-25 17:52 | 42.30205 | -47.76625 | 32555 ft | 576 kts | 84° |
| 2026-04-25 17:52 | 42.31539 | -47.65897 | 32551 ft | 574 kts | 84° |
| 2026-04-25 17:53 | 42.32844 | -47.55325 | 32554 ft | 574 kts | 85° |
| 2026-04-25 17:53 | 42.34150 | -47.44666 | 32556 ft | 574 kts | 85° |
| 2026-04-25 17:54 | 42.35441 | -47.34045 | 32559 ft | 573 kts | 85° |
| 2026-04-25 17:54 | 42.36723 | -47.23414 | 32562 ft | 572 kts | 85° |
| 2026-04-25 17:55 | 42.37991 | -47.12808 | 32564 ft | 571 kts | 85° |
| 2026-04-25 17:55 | 42.39250 | -47.02186 | 32567 ft | 571 kts | 85° |
| 2026-04-25 17:56 | 42.40499 | -46.91572 | 32570 ft | 571 kts | 85° |
| 2026-04-25 17:56 | 42.41730 | -46.81023 | 32573 ft | 572 kts | 86° |
| 2026-04-25 17:57 | 42.42961 | -46.70386 | 32576 ft | 572 kts | 86° |
| 2026-04-25 17:57 | 42.44175 | -46.59804 | 32579 ft | 573 kts | 86° |
| 2026-04-25 17:58 | 42.45387 | -46.49146 | 32582 ft | 573 kts | 86° |
| 2026-04-25 17:58 | 42.46591 | -46.38469 | 32585 ft | 574 kts | 86° |
| 2026-04-25 17:59 | 42.47796 | -46.27695 | 32588 ft | 575 kts | 86° |
| 2026-04-25 17:59 | 42.48984 | -46.16983 | 32591 ft | 575 kts | 86° |
| 2026-04-25 18:00 | 42.49272 | -46.14366 | 32593 ft | 575 kts | 86° |
| 2026-04-25 18:00 | 42.50213 | -46.05800 | 32594 ft | 576 kts | 86° |
| 2026-04-25 18:01 | 42.51380 | -45.95078 | 32599 ft | 575 kts | 86° |
| 2026-04-25 18:01 | 42.52538 | -45.84348 | 32602 ft | 575 kts | 87° |
| 2026-04-25 18:02 | 42.53683 | -45.73628 | 32605 ft | 574 kts | 87° |
| 2026-04-25 18:02 | 42.54818 | -45.62921 | 32609 ft | 573 kts | 87° |
| 2026-04-25 18:03 | 42.55941 | -45.52218 | 32613 ft | 572 kts | 87° |
| 2026-04-25 18:03 | 42.57052 | -45.41534 | 32616 ft | 572 kts | 87° |
| 2026-04-25 18:04 | 42.58155 | -45.30828 | 32607 ft | 572 kts | 87° |
| 2026-04-25 18:04 | 42.59245 | -45.20151 | 32611 ft | 571 kts | 87° |
| 2026-04-25 18:05 | 42.60325 | -45.09469 | 32615 ft | 571 kts | 87° |
| 2026-04-25 18:05 | 42.61394 | -44.98791 | 32619 ft | 571 kts | 88° |
| 2026-04-25 18:06 | 42.62448 | -44.88170 | 32623 ft | 571 kts | 88° |
| 2026-04-25 18:06 | 42.63498 | -44.77478 | 32627 ft | 571 kts | 88° |
| 2026-04-25 18:07 | 42.64538 | -44.66789 | 32631 ft | 571 kts | 88° |
| 2026-04-25 18:07 | 42.65393 | -44.57918 | 32634 ft | 570 kts | 88° |
| 2026-04-25 18:08 | 42.66413 | -44.47233 | 32638 ft | 570 kts | 88° |
| 2026-04-25 18:08 | 42.67424 | -44.36539 | 32643 ft | 570 kts | 88° |
| 2026-04-25 18:09 | 42.68424 | -44.25853 | 32647 ft | 570 kts | 88° |
| 2026-04-25 18:09 | 42.69415 | -44.15153 | 32651 ft | 570 kts | 88° |
| 2026-04-25 18:10 | 42.70394 | -44.04473 | 32656 ft | 570 kts | 88° |
| 2026-04-25 18:10 | 42.71366 | -43.93765 | 32660 ft | 570 kts | 88° |
| 2026-04-25 18:11 | 42.72319 | -43.83141 | 32665 ft | 570 kts | 89° |
| 2026-04-25 18:11 | 42.73270 | -43.72436 | 32669 ft | 570 kts | 89° |
| 2026-04-25 18:12 | 42.74210 | -43.61727 | 32674 ft | 570 kts | 89° |
| 2026-04-25 18:12 | 42.75140 | -43.51030 | 32679 ft | 570 kts | 89° |
| 2026-04-25 18:13 | 42.76061 | -43.40309 | 32683 ft | 570 kts | 89° |
| 2026-04-25 18:13 | 42.76972 | -43.29588 | 32687 ft | 570 kts | 89° |
| 2026-04-25 18:14 | 42.78319 | -43.13509 | 32695 ft | 570 kts | 89° |
| 2026-04-25 18:14 | 42.79205 | -43.02773 | 32700 ft | 571 kts | 89° |
| 2026-04-25 18:15 | 42.80077 | -42.92096 | 32704 ft | 570 kts | 89° |
| 2026-04-25 18:15 | 42.80943 | -42.81352 | 32710 ft | 571 kts | 89° |
| 2026-04-25 18:16 | 42.81801 | -42.70592 | 32714 ft | 571 kts | 90° |
| 2026-04-25 18:17 | 42.83069 | -42.54445 | 32721 ft | 571 kts | 90° |
| 2026-04-25 18:17 | 42.83895 | -42.43755 | 32726 ft | 571 kts | 90° |
| 2026-04-25 18:18 | 42.84722 | -42.32926 | 32731 ft | 571 kts | 90° |
| 2026-04-25 18:18 | 42.85528 | -42.22243 | 32736 ft | 571 kts | 90° |
| 2026-04-25 18:19 | 42.86329 | -42.11477 | 32741 ft | 571 kts | 90° |
| 2026-04-25 18:19 | 42.87120 | -42.00720 | 32746 ft | 570 kts | 90° |
| 2026-04-25 18:20 | 42.87899 | -41.89980 | 32752 ft | 570 kts | 90° |
| 2026-04-25 18:20 | 42.88669 | -41.79227 | 32757 ft | 570 kts | 90° |
| 2026-04-25 18:21 | 42.89428 | -41.68475 | 32761 ft | 570 kts | 90° |
| 2026-04-25 18:21 | 42.90177 | -41.57725 | 32766 ft | 569 kts | 90° |
| 2026-04-25 18:22 | 42.90915 | -41.46997 | 32771 ft | 567 kts | 91° |
| 2026-04-25 18:22 | 42.91642 | -41.36288 | 32780 ft | 564 kts | 91° |
| 2026-04-25 18:23 | 42.92353 | -41.25648 | 32785 ft | 562 kts | 91° |
| 2026-04-25 18:23 | 42.93053 | -41.15006 | 32791 ft | 563 kts | 91° |
| 2026-04-25 18:24 | 42.93745 | -41.04361 | 32795 ft | 564 kts | 92° |
| 2026-04-25 18:24 | 42.94430 | -40.93687 | 32802 ft | 564 kts | 92° |
| 2026-04-25 18:25 | 42.95097 | -40.83086 | 32805 ft | 564 kts | 92° |
| 2026-04-25 18:25 | 42.95760 | -40.72415 | 32810 ft | 564 kts | 92° |
| 2026-04-25 18:26 | 42.96414 | -40.61751 | 32815 ft | 564 kts | 92° |
| 2026-04-25 18:26 | 42.97057 | -40.51065 | 32820 ft | 564 kts | 92° |
| 2026-04-25 18:27 | 42.97712 | -40.40388 | 32825 ft | 564 kts | 92° |
| 2026-04-25 18:27 | 42.98357 | -40.29707 | 32830 ft | 564 kts | 92° |
| 2026-04-25 18:28 | 42.98953 | -40.19034 | 32834 ft | 564 kts | 92° |
| 2026-04-25 18:28 | 42.99540 | -40.08357 | 32839 ft | 563 kts | 93° |
| 2026-04-25 18:29 | 43.00344 | -39.92346 | 32847 ft | 563 kts | 94° |
| 2026-04-25 18:30 | 43.01104 | -39.72758 | 32855 ft | 564 kts | 94° |
| 2026-04-25 18:30 | 43.01507 | -39.62074 | 32860 ft | 563 kts | 94° |
| 2026-04-25 18:31 | 43.01987 | -39.49648 | 32865 ft | 563 kts | 93° |
| 2026-04-25 18:31 | 43.02388 | -39.40699 | 32869 ft | 562 kts | 93° |
| 2026-04-25 18:32 | 43.02819 | -39.30083 | 32875 ft | 563 kts | 93° |
| 2026-04-25 18:32 | 43.03222 | -39.19398 | 32879 ft | 563 kts | 93° |
| 2026-04-25 18:33 | 43.03611 | -39.08705 | 32883 ft | 563 kts | 93° |
| 2026-04-25 18:33 | 43.03988 | -38.98004 | 32888 ft | 563 kts | 93° |
| 2026-04-25 18:34 | 43.04354 | -38.87318 | 32892 ft | 562 kts | 93° |
| 2026-04-25 18:34 | 43.04710 | -38.76622 | 32895 ft | 563 kts | 93° |
| 2026-04-25 18:35 | 43.05057 | -38.65910 | 32901 ft | 563 kts | 94° |
| 2026-04-25 18:35 | 43.05393 | -38.55203 | 32903 ft | 563 kts | 94° |
| 2026-04-25 18:36 | 43.05720 | -38.44487 | 32911 ft | 564 kts | 94° |
| 2026-04-25 18:36 | 43.06035 | -38.33849 | 32914 ft | 564 kts | 94° |
| 2026-04-25 18:37 | 43.06341 | -38.23145 | 32919 ft | 563 kts | 94° |
| 2026-04-25 18:37 | 43.06638 | -38.12427 | 32923 ft | 563 kts | 94° |
| 2026-04-25 18:38 | 43.06925 | -38.01717 | 32927 ft | 563 kts | 94° |
| 2026-04-25 18:38 | 43.07200 | -37.91036 | 32931 ft | 561 kts | 93° |
| 2026-04-25 18:39 | 43.07466 | -37.80364 | 32935 ft | 562 kts | 93° |
| 2026-04-25 18:39 | 43.07722 | -37.69686 | 32939 ft | 561 kts | 93° |
| 2026-04-25 18:40 | 43.07968 | -37.59028 | 32943 ft | 561 kts | 93° |
| 2026-04-25 18:40 | 43.08203 | -37.48362 | 32947 ft | 560 kts | 93° |
| 2026-04-25 18:41 | 43.08430 | -37.37706 | 32950 ft | 560 kts | 93° |
| 2026-04-25 18:41 | 43.08645 | -37.27059 | 32955 ft | 559 kts | 93° |
| 2026-04-25 18:42 | 43.08816 | -37.18230 | 32957 ft | 559 kts | 93° |
| 2026-04-25 18:42 | 43.09045 | -37.05814 | 32967 ft | 558 kts | 93° |
| 2026-04-25 18:43 | 43.09230 | -36.95216 | 32971 ft | 557 kts | 93° |
| 2026-04-25 18:43 | 43.09406 | -36.84619 | 32975 ft | 557 kts | 93° |
| 2026-04-25 18:44 | 43.09570 | -36.74103 | 32978 ft | 556 kts | 93° |
| 2026-04-25 18:44 | 43.09725 | -36.63526 | 32981 ft | 556 kts | 93° |
| 2026-04-25 18:45 | 43.09871 | -36.52947 | 32985 ft | 556 kts | 93° |
| 2026-04-25 18:45 | 43.10007 | -36.42377 | 32988 ft | 555 kts | 93° |
| 2026-04-25 18:46 | 43.10133 | -36.31815 | 32991 ft | 555 kts | 93° |
| 2026-04-25 18:46 | 43.10250 | -36.21266 | 32994 ft | 554 kts | 93° |
| 2026-04-25 18:47 | 43.10356 | -36.10719 | 32997 ft | 554 kts | 93° |
| 2026-04-25 18:47 | 43.10453 | -36.00179 | 33000 ft | 554 kts | 93° |
| 2026-04-25 18:48 | 43.10539 | -35.89650 | 33003 ft | 552 kts | 92° |
| 2026-04-25 18:48 | 43.10617 | -35.79160 | 33007 ft | 551 kts | 92° |
| 2026-04-25 18:49 | 43.10684 | -35.68671 | 33009 ft | 551 kts | 92° |
| 2026-04-25 18:49 | 43.10742 | -35.58186 | 33011 ft | 551 kts | 92° |
| 2026-04-25 18:50 | 43.10790 | -35.47773 | 33014 ft | 550 kts | 92° |
| 2026-04-25 18:50 | 43.10829 | -35.37314 | 33017 ft | 550 kts | 93° |
| 2026-04-25 18:51 | 43.10854 | -35.28554 | 33019 ft | 550 kts | 93° |
| 2026-04-25 18:51 | 43.10878 | -35.16409 | 33022 ft | 549 kts | 93° |
| 2026-04-25 18:52 | 43.10889 | -35.05969 | 33024 ft | 549 kts | 93° |
| 2026-04-25 18:52 | 43.10889 | -34.95505 | 33026 ft | 549 kts | 93° |
| 2026-04-25 18:53 | 43.10880 | -34.85070 | 33028 ft | 548 kts | 93° |
| 2026-04-25 18:53 | 43.10862 | -34.74627 | 33031 ft | 549 kts | 93° |
| 2026-04-25 18:54 | 43.10817 | -34.58976 | 33034 ft | 547 kts | 93° |
| 2026-04-25 18:55 | 43.10774 | -34.48549 | 33036 ft | 547 kts | 93° |
| 2026-04-25 18:55 | 43.10723 | -34.38146 | 33038 ft | 547 kts | 93° |
| 2026-04-25 18:56 | 43.10663 | -34.27743 | 33040 ft | 547 kts | 93° |
| 2026-04-25 18:56 | 43.10592 | -34.17327 | 33042 ft | 547 kts | 93° |
| 2026-04-25 18:57 | 43.10513 | -34.06992 | 33043 ft | 547 kts | 93° |
| 2026-04-25 18:57 | 43.10424 | -33.96593 | 33046 ft | 546 kts | 93° |
| 2026-04-25 18:58 | 43.10326 | -33.86213 | 33047 ft | 545 kts | 93° |
| 2026-04-25 18:58 | 43.10219 | -33.75834 | 33510 ft | 545 kts | 93° |
| 2026-04-25 18:58 | 43.10161 | -33.70660 | 33872 ft | 544 kts | 93° |
| 2026-04-25 18:59 | 43.10040 | -33.60304 | 34532 ft | 542 kts | 93° |
| 2026-04-25 18:59 | 43.09910 | -33.49999 | 35162 ft | 541 kts | 93° |
| 2026-04-25 19:00 | 43.09772 | -33.39761 | 35833 ft | 538 kts | 93° |
| 2026-04-25 19:00 | 43.09699 | -33.34622 | 36064 ft | 538 kts | 93° |
| 2026-04-25 19:01 | 43.09549 | -33.24486 | 36641 ft | 535 kts | 93° |
| 2026-04-25 19:01 | 43.09470 | -33.19394 | 36891 ft | 534 kts | 93° |
| 2026-04-25 19:01 | 43.09389 | -33.14309 | 37033 ft | 534 kts | 93° |
| 2026-04-25 19:01 | 43.09306 | -33.09231 | 37055 ft | 534 kts | 93° |
| 2026-04-25 19:02 | 43.09089 | -32.96604 | 37059 ft | 533 kts | 93° |
| 2026-04-25 19:03 | 43.09018 | -32.92668 | 37059 ft | 533 kts | 93° |
| 2026-04-25 19:03 | 43.08767 | -32.79184 | 37061 ft | 533 kts | 94° |
| 2026-04-25 19:04 | 43.08464 | -32.63983 | 37063 ft | 532 kts | 94° |
| 2026-04-25 19:05 | 43.08030 | -32.43750 | 37065 ft | 532 kts | 94° |
| 2026-04-25 19:06 | 43.07800 | -32.33642 | 37066 ft | 531 kts | 94° |
| 2026-04-25 19:06 | 43.07438 | -32.18474 | 37066 ft | 532 kts | 94° |
| 2026-04-25 19:07 | 43.07056 | -32.03301 | 37068 ft | 532 kts | 94° |
| 2026-04-25 19:08 | 43.06654 | -31.88157 | 37069 ft | 529 kts | 93° |
| 2026-04-25 19:09 | 43.06189 | -31.71460 | 37070 ft | 529 kts | 93° |
| 2026-04-25 19:10 | 43.05648 | -31.53077 | 37071 ft | 528 kts | 94° |
| 2026-04-25 19:10 | 43.05340 | -31.43046 | 37071 ft | 528 kts | 94° |
| 2026-04-25 19:11 | 43.05024 | -31.33020 | 37073 ft | 527 kts | 94° |
| 2026-04-25 19:11 | 43.04699 | -31.23002 | 37072 ft | 527 kts | 94° |
| 2026-04-25 19:12 | 43.04366 | -31.12996 | 37073 ft | 526 kts | 94° |
| 2026-04-25 19:12 | 43.04026 | -31.03050 | 37086 ft | 526 kts | 94° |
| 2026-04-25 19:13 | 43.03676 | -30.93062 | 37087 ft | 526 kts | 94° |
| 2026-04-25 19:13 | 43.03317 | -30.83074 | 37087 ft | 525 kts | 94° |
| 2026-04-25 19:14 | 43.02951 | -30.73099 | 37088 ft | 525 kts | 94° |
| 2026-04-25 19:14 | 43.02577 | -30.63172 | 37088 ft | 525 kts | 94° |
| 2026-04-25 19:15 | 43.02194 | -30.53226 | 37088 ft | 524 kts | 94° |
| 2026-04-25 19:15 | 43.01806 | -30.43278 | 37088 ft | 524 kts | 93° |
| 2026-04-25 19:16 | 43.01447 | -30.33341 | 37089 ft | 523 kts | 94° |
| 2026-04-25 19:16 | 43.01100 | -30.25088 | 37091 ft | 523 kts | 94° |
| 2026-04-25 19:17 | 43.00666 | -30.15159 | 37089 ft | 523 kts | 94° |
| 2026-04-25 19:17 | 43.00230 | -30.05236 | 37090 ft | 523 kts | 94° |
| 2026-04-25 19:18 | 43.00095 | -29.95314 | 37090 ft | 522 kts | 88° |
| 2026-04-25 19:18 | 43.00514 | -29.85432 | 37089 ft | 520 kts | 86° |
| 2026-04-25 19:19 | 43.00959 | -29.75574 | 37089 ft | 520 kts | 86° |
| 2026-04-25 19:19 | 43.01355 | -29.65768 | 37090 ft | 520 kts | 86° |
| 2026-04-25 19:20 | 43.01732 | -29.55878 | 37091 ft | 520 kts | 86° |
| 2026-04-25 19:20 | 43.02156 | -29.45999 | 37089 ft | 520 kts | 86° |
| 2026-04-25 19:21 | 43.02578 | -29.36129 | 37090 ft | 520 kts | 86° |
| 2026-04-25 19:21 | 43.03150 | -29.21332 | 37111 ft | 519 kts | 86° |
| 2026-04-25 19:22 | 43.03511 | -29.11480 | 37112 ft | 519 kts | 86° |
| 2026-04-25 19:23 | 43.04033 | -28.96706 | 37123 ft | 519 kts | 86° |
| 2026-04-25 19:23 | 43.04535 | -28.81928 | 37123 ft | 519 kts | 86° |
| 2026-04-25 19:24 | 43.04859 | -28.72071 | 37123 ft | 519 kts | 87° |
| 2026-04-25 19:25 | 43.05480 | -28.52418 | 37123 ft | 519 kts | 87° |
| 2026-04-25 19:25 | 43.05779 | -28.42566 | 37124 ft | 518 kts | 87° |
| 2026-04-25 19:26 | 43.06068 | -28.32720 | 37124 ft | 517 kts | 87° |
| 2026-04-25 19:26 | 43.06349 | -28.22891 | 37137 ft | 517 kts | 87° |
| 2026-04-25 19:27 | 43.06577 | -28.14718 | 37137 ft | 517 kts | 87° |
| 2026-04-25 19:27 | 43.06886 | -28.03213 | 37138 ft | 517 kts | 87° |
| 2026-04-25 19:28 | 43.07142 | -27.93378 | 37138 ft | 517 kts | 87° |
| 2026-04-25 19:28 | 43.07387 | -27.83624 | 37138 ft | 516 kts | 87° |
| 2026-04-25 19:29 | 43.07625 | -27.73817 | 37137 ft | 516 kts | 87° |
| 2026-04-25 19:29 | 43.07855 | -27.63992 | 37138 ft | 515 kts | 87° |
| 2026-04-25 19:30 | 43.08077 | -27.54178 | 37138 ft | 515 kts | 87° |
| 2026-04-25 19:30 | 43.08288 | -27.44439 | 37138 ft | 515 kts | 87° |
| 2026-04-25 19:31 | 43.08493 | -27.34622 | 37138 ft | 515 kts | 87° |
| 2026-04-25 19:31 | 43.08690 | -27.24814 | 37138 ft | 515 kts | 87° |
| 2026-04-25 19:32 | 43.08876 | -27.15075 | 37138 ft | 514 kts | 88° |
| 2026-04-25 19:32 | 43.09027 | -27.06887 | 37138 ft | 514 kts | 88° |
| 2026-04-25 19:33 | 43.09226 | -26.95512 | 37137 ft | 514 kts | 88° |
| 2026-04-25 19:33 | 43.09388 | -26.85727 | 37138 ft | 514 kts | 88° |
| 2026-04-25 19:34 | 43.09542 | -26.75941 | 37138 ft | 513 kts | 88° |
| 2026-04-25 19:34 | 43.09688 | -26.66180 | 37138 ft | 513 kts | 88° |
| 2026-04-25 19:35 | 43.09825 | -26.56413 | 37138 ft | 513 kts | 88° |
| 2026-04-25 19:35 | 43.09953 | -26.46717 | 37138 ft | 513 kts | 88° |
| 2026-04-25 19:36 | 43.10074 | -26.36952 | 37137 ft | 513 kts | 88° |
| 2026-04-25 19:36 | 43.10186 | -26.27185 | 37137 ft | 513 kts | 88° |
| 2026-04-25 19:37 | 43.10291 | -26.17426 | 37138 ft | 513 kts | 88° |
| 2026-04-25 19:37 | 43.10386 | -26.07666 | 37137 ft | 512 kts | 88° |
| 2026-04-25 19:38 | 43.10473 | -25.97912 | 37138 ft | 512 kts | 88° |
| 2026-04-25 19:38 | 43.10552 | -25.88180 | 37137 ft | 511 kts | 88° |
| 2026-04-25 19:39 | 43.10622 | -25.78467 | 37137 ft | 511 kts | 88° |
| 2026-04-25 19:39 | 43.10685 | -25.68742 | 37137 ft | 511 kts | 88° |
| 2026-04-25 19:40 | 43.10739 | -25.59015 | 37146 ft | 511 kts | 88° |
| 2026-04-25 19:40 | 43.10785 | -25.49290 | 37146 ft | 511 kts | 89° |
| 2026-04-25 19:41 | 43.10822 | -25.39565 | 37146 ft | 511 kts | 89° |
| 2026-04-25 19:41 | 43.10843 | -25.33120 | 37146 ft | 510 kts | 89° |
| 2026-04-25 19:42 | 43.10873 | -25.20208 | 37146 ft | 510 kts | 89° |
| 2026-04-25 19:42 | 43.10886 | -25.10505 | 37137 ft | 510 kts | 89° |
| 2026-04-25 19:43 | 43.10891 | -25.00790 | 37135 ft | 510 kts | 89° |
| 2026-04-25 19:43 | 43.10887 | -24.91075 | 37135 ft | 510 kts | 89° |
| 2026-04-25 19:44 | 43.10876 | -24.81359 | 37135 ft | 511 kts | 89° |
| 2026-04-25 19:44 | 43.10856 | -24.71634 | 37135 ft | 511 kts | 89° |
| 2026-04-25 19:45 | 43.10827 | -24.61921 | 37135 ft | 510 kts | 90° |
| 2026-04-25 19:45 | 43.10791 | -24.52213 | 37134 ft | 510 kts | 90° |
| 2026-04-25 19:46 | 43.10746 | -24.42493 | 37134 ft | 510 kts | 90° |
| 2026-04-25 19:46 | 43.10694 | -24.32780 | 37134 ft | 510 kts | 90° |
| 2026-04-25 19:47 | 43.10633 | -24.23066 | 37134 ft | 510 kts | 90° |
| 2026-04-25 19:47 | 43.10564 | -24.13354 | 37134 ft | 510 kts | 90° |
| 2026-04-25 19:48 | 43.10486 | -24.03641 | 37134 ft | 511 kts | 90° |
| 2026-04-25 19:48 | 43.10401 | -23.93922 | 37134 ft | 511 kts | 90° |
| 2026-04-25 19:49 | 43.10340 | -23.87468 | 37134 ft | 512 kts | 91° |
| 2026-04-25 19:49 | 43.10205 | -23.74477 | 37134 ft | 513 kts | 91° |
| 2026-04-25 19:50 | 43.10035 | -23.59819 | 37134 ft | 513 kts | 91° |
| 2026-04-25 19:51 | 43.09911 | -23.50048 | 37134 ft | 513 kts | 91° |
| 2026-04-25 19:51 | 43.09780 | -23.40283 | 37133 ft | 514 kts | 91° |
| 2026-04-25 19:52 | 43.09639 | -23.30498 | 37133 ft | 514 kts | 91° |
| 2026-04-25 19:52 | 43.09492 | -23.20777 | 37132 ft | 514 kts | 92° |
| 2026-04-25 19:53 | 43.09335 | -23.10996 | 37132 ft | 514 kts | 92° |
| 2026-04-25 19:53 | 43.09169 | -23.01202 | 37132 ft | 515 kts | 92° |
| 2026-04-25 19:54 | 43.08995 | -22.91393 | 37132 ft | 516 kts | 92° |
| 2026-04-25 19:54 | 43.08813 | -22.81568 | 37132 ft | 516 kts | 92° |
| 2026-04-25 19:55 | 43.08621 | -22.71737 | 37131 ft | 517 kts | 92° |
| 2026-04-25 19:55 | 43.08422 | -22.61898 | 37139 ft | 517 kts | 92° |
| 2026-04-25 19:56 | 43.08213 | -22.52069 | 37146 ft | 518 kts | 92° |
| 2026-04-25 19:56 | 43.07997 | -22.42227 | 37146 ft | 517 kts | 93° |
| 2026-04-25 19:57 | 43.07773 | -22.32444 | 37146 ft | 518 kts | 93° |
| 2026-04-25 19:57 | 43.07539 | -22.22588 | 37146 ft | 519 kts | 93° |
| 2026-04-25 19:58 | 43.07296 | -22.12715 | 37146 ft | 519 kts | 93° |
| 2026-04-25 19:58 | 43.07045 | -22.02848 | 37146 ft | 519 kts | 93° |
| 2026-04-25 19:59 | 43.06786 | -21.92977 | 37147 ft | 521 kts | 94° |
| 2026-04-25 19:59 | 43.06517 | -21.83067 | 37145 ft | 522 kts | 94° |
| 2026-04-25 20:00 | 43.06237 | -21.73137 | 37147 ft | 522 kts | 94° |
| 2026-04-25 20:00 | 43.06143 | -21.69859 | 37147 ft | 522 kts | 94° |
| 2026-04-25 20:01 | 43.05784 | -21.57619 | 37147 ft | 521 kts | 94° |
| 2026-04-25 20:01 | 43.05485 | -21.47715 | 37147 ft | 522 kts | 94° |
| 2026-04-25 20:02 | 43.05176 | -21.37799 | 37147 ft | 522 kts | 94° |
| 2026-04-25 20:02 | 43.04858 | -21.27878 | 37147 ft | 522 kts | 95° |
| 2026-04-25 20:03 | 43.04532 | -21.17946 | 37147 ft | 523 kts | 95° |
| 2026-04-25 20:03 | 43.04255 | -21.09707 | 37147 ft | 522 kts | 95° |
| 2026-04-25 20:04 | 43.03913 | -20.99779 | 37148 ft | 523 kts | 95° |
| 2026-04-25 20:04 | 43.03562 | -20.89847 | 37148 ft | 523 kts | 95° |
| 2026-04-25 20:05 | 43.03202 | -20.79915 | 37148 ft | 523 kts | 95° |
| 2026-04-25 20:05 | 43.02834 | -20.69980 | 37148 ft | 523 kts | 95° |
| 2026-04-25 20:06 | 43.02491 | -20.60909 | 37148 ft | 523 kts | 95° |
| 2026-04-25 20:06 | 43.02106 | -20.50977 | 37148 ft | 523 kts | 96° |
| 2026-04-25 20:07 | 43.01733 | -20.41056 | 37149 ft | 523 kts | 95° |
| 2026-04-25 20:07 | 43.01356 | -20.31116 | 37148 ft | 523 kts | 96° |
| 2026-04-25 20:08 | 43.00930 | -20.21190 | 37149 ft | 524 kts | 96° |
| 2026-04-25 20:08 | 43.00494 | -20.11249 | 37150 ft | 523 kts | 96° |
| 2026-04-25 20:09 | 43.00126 | -20.01385 | 37145 ft | 524 kts | 92° |
| 2026-04-25 20:09 | 43.00729 | -19.91437 | 37150 ft | 527 kts | 85° |
| 2026-04-25 20:10 | 43.01778 | -19.81509 | 37151 ft | 529 kts | 84° |
| 2026-04-25 20:10 | 43.02802 | -19.71542 | 37151 ft | 529 kts | 84° |
| 2026-04-25 20:11 | 43.03783 | -19.61590 | 37151 ft | 528 kts | 84° |
| 2026-04-25 20:11 | 43.04753 | -19.51638 | 37151 ft | 528 kts | 84° |
| 2026-04-25 20:12 | 43.05789 | -19.41696 | 37151 ft | 528 kts | 84° |
| 2026-04-25 20:12 | 43.06616 | -19.33418 | 37151 ft | 529 kts | 84° |
| 2026-04-25 20:13 | 43.07750 | -19.21750 | 37152 ft | 529 kts | 85° |
| 2026-04-25 20:13 | 43.08702 | -19.11776 | 37152 ft | 529 kts | 85° |
| 2026-04-25 20:14 | 43.09644 | -19.01798 | 37152 ft | 529 kts | 85° |
| 2026-04-25 20:14 | 43.10577 | -18.91818 | 37149 ft | 529 kts | 85° |
| 2026-04-25 20:15 | 43.11500 | -18.81837 | 37141 ft | 528 kts | 85° |
| 2026-04-25 20:15 | 43.12415 | -18.71851 | 37141 ft | 529 kts | 85° |
| 2026-04-25 20:16 | 43.13321 | -18.61859 | 37141 ft | 529 kts | 85° |
| 2026-04-25 20:16 | 43.14213 | -18.51930 | 37141 ft | 529 kts | 85° |
| 2026-04-25 20:17 | 43.15102 | -18.41930 | 37142 ft | 529 kts | 85° |
| 2026-04-25 20:17 | 43.15983 | -18.31926 | 37141 ft | 529 kts | 86° |
| 2026-04-25 20:18 | 43.16855 | -18.21919 | 37141 ft | 529 kts | 86° |
| 2026-04-25 20:18 | 43.17718 | -18.11910 | 37141 ft | 529 kts | 86° |
| 2026-04-25 20:19 | 43.18572 | -18.01899 | 37141 ft | 529 kts | 86° |
| 2026-04-25 20:19 | 43.19417 | -17.91891 | 37141 ft | 528 kts | 86° |
| 2026-04-25 20:20 | 43.20252 | -17.81891 | 37141 ft | 528 kts | 86° |
| 2026-04-25 20:20 | 43.21078 | -17.71894 | 37141 ft | 528 kts | 86° |
| 2026-04-25 20:21 | 43.21896 | -17.61898 | 37141 ft | 527 kts | 86° |
| 2026-04-25 20:21 | 43.22705 | -17.51901 | 37142 ft | 527 kts | 86° |
| 2026-04-25 20:22 | 43.23368 | -17.43605 | 37142 ft | 527 kts | 86° |
| 2026-04-25 20:22 | 43.24295 | -17.31899 | 37142 ft | 527 kts | 86° |
| 2026-04-25 20:23 | 43.25072 | -17.21954 | 37142 ft | 527 kts | 86° |
| 2026-04-25 20:23 | 43.25845 | -17.11954 | 37141 ft | 527 kts | 86° |
| 2026-04-25 20:24 | 43.26608 | -17.01966 | 37141 ft | 526 kts | 86° |
| 2026-04-25 20:24 | 43.27362 | -16.91989 | 37141 ft | 525 kts | 86° |
| 2026-04-25 20:25 | 43.28107 | -16.82009 | 37142 ft | 525 kts | 86° |
| 2026-04-25 20:25 | 43.28843 | -16.72037 | 37146 ft | 525 kts | 87° |
| 2026-04-25 20:26 | 43.29568 | -16.62075 | 37146 ft | 525 kts | 87° |
| 2026-04-25 20:26 | 43.30286 | -16.52106 | 37142 ft | 525 kts | 87° |
| 2026-04-25 20:27 | 43.30995 | -16.42131 | 37142 ft | 524 kts | 87° |
| 2026-04-25 20:27 | 43.31694 | -16.32174 | 37141 ft | 524 kts | 87° |
| 2026-04-25 20:28 | 43.32380 | -16.22278 | 37141 ft | 523 kts | 87° |
| 2026-04-25 20:28 | 43.33061 | -16.12321 | 37142 ft | 524 kts | 87° |
| 2026-04-25 20:29 | 43.33735 | -16.02351 | 37142 ft | 524 kts | 87° |
| 2026-04-25 20:29 | 43.34399 | -15.92387 | 37141 ft | 523 kts | 87° |
| 2026-04-25 20:30 | 43.35053 | -15.82453 | 37142 ft | 521 kts | 87° |
| 2026-04-25 20:30 | 43.35698 | -15.72525 | 37141 ft | 522 kts | 87° |
| 2026-04-25 20:31 | 43.36334 | -15.62591 | 37141 ft | 522 kts | 87° |
| 2026-04-25 20:31 | 43.36962 | -15.52650 | 37144 ft | 521 kts | 87° |
| 2026-04-25 20:32 | 43.37476 | -15.44397 | 37141 ft | 520 kts | 87° |
| 2026-04-25 20:32 | 43.38185 | -15.32877 | 37141 ft | 520 kts | 87° |
| 2026-04-25 20:33 | 43.38785 | -15.22967 | 37141 ft | 520 kts | 87° |
| 2026-04-25 20:33 | 43.39276 | -15.14731 | 37141 ft | 519 kts | 87° |
| 2026-04-25 20:34 | 43.39957 | -15.03167 | 37142 ft | 519 kts | 87° |
| 2026-04-25 20:34 | 43.40531 | -14.93267 | 37142 ft | 518 kts | 87° |
| 2026-04-25 20:35 | 43.41094 | -14.83393 | 37141 ft | 518 kts | 87° |
| 2026-04-25 20:35 | 43.41645 | -14.73601 | 37141 ft | 517 kts | 87° |
| 2026-04-25 20:36 | 43.42190 | -14.63740 | 37142 ft | 517 kts | 87° |
| 2026-04-25 20:36 | 43.42726 | -14.53880 | 37141 ft | 516 kts | 87° |
| 2026-04-25 20:37 | 43.43254 | -14.44031 | 37142 ft | 516 kts | 87° |
| 2026-04-25 20:37 | 43.43773 | -14.34183 | 37142 ft | 515 kts | 87° |
| 2026-04-25 20:38 | 43.44283 | -14.24348 | 37151 ft | 515 kts | 88° |
| 2026-04-25 20:38 | 43.44785 | -14.14507 | 37151 ft | 515 kts | 88° |
| 2026-04-25 20:39 | 43.45277 | -14.04680 | 37151 ft | 515 kts | 88° |
| 2026-04-25 20:39 | 43.45599 | -13.98157 | 37151 ft | 515 kts | 88° |
| 2026-04-25 20:40 | 43.46233 | -13.85095 | 37150 ft | 513 kts | 88° |
| 2026-04-25 20:40 | 43.46700 | -13.75283 | 37150 ft | 513 kts | 88° |
| 2026-04-25 20:41 | 43.47159 | -13.65472 | 37150 ft | 513 kts | 88° |
| 2026-04-25 20:41 | 43.47607 | -13.55678 | 37149 ft | 512 kts | 88° |
| 2026-04-25 20:42 | 43.48047 | -13.45889 | 37150 ft | 512 kts | 88° |
| 2026-04-25 20:42 | 43.48522 | -13.36109 | 37150 ft | 512 kts | 88° |
| 2026-04-25 20:43 | 43.48940 | -13.26345 | 37150 ft | 511 kts | 88° |
| 2026-04-25 20:43 | 43.49335 | -13.16570 | 37149 ft | 511 kts | 88° |
| 2026-04-25 20:44 | 43.49727 | -13.06800 | 37149 ft | 511 kts | 88° |
| 2026-04-25 20:44 | 43.49987 | -12.97042 | 37149 ft | 509 kts | 91° |
| 2026-04-25 20:45 | 43.49735 | -12.87365 | 37149 ft | 508 kts | 94° |
| 2026-04-25 20:45 | 43.49387 | -12.77653 | 37148 ft | 507 kts | 94° |
| 2026-04-25 20:46 | 43.49063 | -12.67947 | 37148 ft | 507 kts | 94° |
| 2026-04-25 20:46 | 43.48743 | -12.58241 | 37148 ft | 507 kts | 94° |
| 2026-04-25 20:47 | 43.48454 | -12.48528 | 37148 ft | 507 kts | 93° |
| 2026-04-25 20:47 | 43.48248 | -12.40467 | 37147 ft | 506 kts | 93° |
| 2026-04-25 20:48 | 43.47963 | -12.30767 | 37147 ft | 506 kts | 94° |
| 2026-04-25 20:48 | 43.47656 | -12.21077 | 37147 ft | 506 kts | 94° |
| 2026-04-25 20:49 | 43.47335 | -12.11386 | 37146 ft | 506 kts | 94° |
| 2026-04-25 20:49 | 43.47004 | -12.01710 | 37146 ft | 506 kts | 94° |
| 2026-04-25 20:50 | 43.46665 | -11.92036 | 37146 ft | 505 kts | 94° |
| 2026-04-25 20:50 | 43.46318 | -11.82393 | 37145 ft | 504 kts | 94° |
| 2026-04-25 20:51 | 43.45964 | -11.72756 | 37145 ft | 504 kts | 94° |
| 2026-04-25 20:51 | 43.45603 | -11.63169 | 37145 ft | 504 kts | 94° |
| 2026-04-25 20:52 | 43.45293 | -11.55098 | 37145 ft | 504 kts | 94° |
| 2026-04-25 20:52 | 43.44854 | -11.43904 | 37181 ft | 504 kts | 94° |
| 2026-04-25 20:53 | 43.44466 | -11.34261 | 37185 ft | 504 kts | 94° |
| 2026-04-25 20:53 | 43.44070 | -11.24623 | 37185 ft | 504 kts | 94° |
| 2026-04-25 20:54 | 43.43667 | -11.15001 | 37184 ft | 503 kts | 94° |
| 2026-04-25 20:54 | 43.43257 | -11.05403 | 37184 ft | 503 kts | 95° |
| 2026-04-25 20:55 | 43.42839 | -10.95805 | 37183 ft | 503 kts | 95° |
| 2026-04-25 20:55 | 43.42413 | -10.86204 | 37183 ft | 502 kts | 95° |
| 2026-04-25 20:56 | 43.41980 | -10.76626 | 37183 ft | 501 kts | 95° |
| 2026-04-25 20:56 | 43.41539 | -10.67061 | 37182 ft | 501 kts | 95° |
| 2026-04-25 20:57 | 43.41089 | -10.57481 | 37183 ft | 502 kts | 95° |
| 2026-04-25 20:57 | 43.40634 | -10.47952 | 37182 ft | 502 kts | 95° |
| 2026-04-25 20:58 | 43.40169 | -10.38371 | 37182 ft | 502 kts | 95° |
| 2026-04-25 20:58 | 43.39695 | -10.28798 | 37181 ft | 502 kts | 95° |
| 2026-04-25 20:59 | 43.39215 | -10.19236 | 37181 ft | 502 kts | 95° |
| 2026-04-25 20:59 | 43.38725 | -10.09662 | 37180 ft | 502 kts | 95° |
| 2026-04-25 21:00 | 43.38313 | -10.01717 | 37180 ft | 501 kts | 95° |
| 2026-04-25 21:01 | 43.37472 | -9.85833 | 37179 ft | 501 kts | 95° |
| 2026-04-25 21:01 | 43.37025 | -9.77566 | 37179 ft | 500 kts | 95° |
| 2026-04-25 21:02 | 43.36968 | -9.76518 | 37178 ft | 500 kts | 95° |
| 2026-04-25 21:02 | 43.36445 | -9.66983 | 37177 ft | 500 kts | 95° |
| 2026-04-25 21:03 | 43.35914 | -9.57450 | 37176 ft | 500 kts | 95° |
| 2026-04-25 21:03 | 43.35375 | -9.47919 | 37176 ft | 500 kts | 95° |
| 2026-04-25 21:04 | 43.34827 | -9.38380 | 37176 ft | 501 kts | 95° |
| 2026-04-25 21:04 | 43.34272 | -9.28849 | 37173 ft | 500 kts | 95° |
| 2026-04-25 21:05 | 43.33710 | -9.19338 | 37173 ft | 500 kts | 95° |
| 2026-04-25 21:05 | 43.33139 | -9.09814 | 37173 ft | 500 kts | 95° |
| 2026-04-25 21:06 | 43.32560 | -9.00283 | 37173 ft | 500 kts | 95° |
| 2026-04-25 21:06 | 43.31973 | -8.90763 | 37173 ft | 500 kts | 95° |
| 2026-04-25 21:07 | 43.31382 | -8.81294 | 37172 ft | 500 kts | 95° |
| 2026-04-25 21:07 | 43.30780 | -8.71771 | 37172 ft | 500 kts | 95° |
| 2026-04-25 21:08 | 43.30172 | -8.62253 | 37171 ft | 500 kts | 95° |
| 2026-04-25 21:08 | 43.29552 | -8.52740 | 37170 ft | 500 kts | 95° |
| 2026-04-25 21:09 | 43.28610 | -8.38477 | 37171 ft | 500 kts | 95° |
| 2026-04-25 21:09 | 43.27971 | -8.28950 | 37172 ft | 500 kts | 95° |
| 2026-04-25 21:10 | 43.27325 | -8.19433 | 37171 ft | 500 kts | 95° |
| 2026-04-25 21:10 | 43.26672 | -8.09939 | 37172 ft | 500 kts | 95° |
| 2026-04-25 21:11 | 43.26011 | -8.00442 | 37172 ft | 500 kts | 95° |
| 2026-04-25 21:11 | 43.25345 | -7.90997 | 37173 ft | 500 kts | 95° |
| 2026-04-25 21:12 | 43.24670 | -7.81510 | 37175 ft | 499 kts | 95° |
| 2026-04-25 21:12 | 43.24140 | -7.73627 | 37176 ft | 499 kts | 95° |
| 2026-04-25 21:13 | 43.23334 | -7.62563 | 37178 ft | 498 kts | 95° |
| 2026-04-25 21:13 | 43.22620 | -7.53110 | 37181 ft | 498 kts | 95° |
| 2026-04-25 21:14 | 43.21901 | -7.43664 | 37183 ft | 498 kts | 95° |
| 2026-04-25 21:14 | 43.21162 | -7.34230 | 37185 ft | 497 kts | 97° |
| 2026-04-25 21:15 | 43.20073 | -7.24874 | 37190 ft | 497 kts | 99° |
| 2026-04-25 21:15 | 43.18877 | -7.15545 | 37192 ft | 497 kts | 99° |
| 2026-04-25 21:16 | 43.17702 | -7.06223 | 37195 ft | 496 kts | 99° |
| 2026-04-25 21:16 | 43.16532 | -6.96905 | 37198 ft | 496 kts | 99° |
| 2026-04-25 21:17 | 43.15369 | -6.87591 | 37201 ft | 496 kts | 98° |
| 2026-04-25 21:17 | 43.14280 | -6.78324 | 37204 ft | 496 kts | 98° |
| 2026-04-25 21:18 | 43.13147 | -6.69022 | 37207 ft | 495 kts | 99° |
| 2026-04-25 21:18 | 43.11992 | -6.59730 | 37210 ft | 495 kts | 99° |
| 2026-04-25 21:19 | 43.10825 | -6.50446 | 37212 ft | 495 kts | 99° |
| 2026-04-25 21:19 | 43.09649 | -6.41177 | 37213 ft | 494 kts | 99° |
| 2026-04-25 21:20 | 43.08858 | -6.34984 | 37214 ft | 494 kts | 99° |
| 2026-04-25 21:20 | 43.07273 | -6.22654 | 37215 ft | 494 kts | 99° |
| 2026-04-25 21:21 | 43.06074 | -6.13402 | 37215 ft | 494 kts | 99° |
| 2026-04-25 21:21 | 43.04869 | -6.04161 | 37214 ft | 493 kts | 99° |
| 2026-04-25 21:22 | 43.03658 | -5.94937 | 37216 ft | 493 kts | 99° |
| 2026-04-25 21:22 | 43.02440 | -5.85723 | 37216 ft | 493 kts | 99° |
| 2026-04-25 21:23 | 43.01215 | -5.76514 | 37214 ft | 493 kts | 100° |
| 2026-04-25 21:23 | 42.99982 | -5.67303 | 37213 ft | 493 kts | 100° |
| 2026-04-25 21:24 | 42.98742 | -5.58100 | 37212 ft | 493 kts | 100° |
| 2026-04-25 21:24 | 42.97493 | -5.48890 | 37212 ft | 493 kts | 100° |
| 2026-04-25 21:25 | 42.96239 | -5.39698 | 37212 ft | 492 kts | 100° |
| 2026-04-25 21:25 | 42.94987 | -5.30574 | 37212 ft | 492 kts | 100° |
| 2026-04-25 21:26 | 42.93718 | -5.21387 | 37213 ft | 492 kts | 100° |
| 2026-04-25 21:26 | 42.92443 | -5.12213 | 37214 ft | 492 kts | 100° |
| 2026-04-25 21:27 | 42.91160 | -5.03029 | 37215 ft | 492 kts | 100° |
| 2026-04-25 21:27 | 42.89869 | -4.93853 | 37384 ft | 492 kts | 101° |
| 2026-04-25 21:28 | 42.89219 | -4.89262 | 37652 ft | 492 kts | 101° |
| 2026-04-25 21:28 | 42.88570 | -4.84683 | 37929 ft | 491 kts | 101° |
| 2026-04-25 21:28 | 42.87918 | -4.80104 | 38177 ft | 491 kts | 101° |
| 2026-04-25 21:28 | 42.87267 | -4.75539 | 38217 ft | 491 kts | 101° |
| 2026-04-25 21:29 | 42.85957 | -4.66398 | 38228 ft | 491 kts | 101° |
| 2026-04-25 21:29 | 42.84642 | -4.57279 | 38231 ft | 491 kts | 101° |
| 2026-04-25 21:30 | 42.83320 | -4.48157 | 38235 ft | 490 kts | 101° |
| 2026-04-25 21:30 | 42.82215 | -4.40575 | 38236 ft | 490 kts | 101° |
| 2026-04-25 21:31 | 42.80662 | -4.29984 | 38237 ft | 491 kts | 101° |
| 2026-04-25 21:31 | 42.79315 | -4.20858 | 38237 ft | 491 kts | 102° |
| 2026-04-25 21:32 | 42.77965 | -4.11760 | 38237 ft | 490 kts | 102° |
| 2026-04-25 21:32 | 42.76838 | -4.04204 | 38237 ft | 490 kts | 102° |
| 2026-04-25 21:33 | 42.75474 | -3.95110 | 38236 ft | 490 kts | 102° |
| 2026-04-25 21:33 | 42.74102 | -3.86016 | 38236 ft | 491 kts | 102° |
| 2026-04-25 21:34 | 42.72721 | -3.76911 | 38237 ft | 490 kts | 102° |
| 2026-04-25 21:34 | 42.71373 | -3.68073 | 38238 ft | 490 kts | 102° |
| 2026-04-25 21:35 | 42.69980 | -3.58995 | 38235 ft | 490 kts | 102° |
| 2026-04-25 21:35 | 42.68588 | -3.49966 | 38229 ft | 490 kts | 102° |
| 2026-04-25 21:36 | 42.67181 | -3.40893 | 38228 ft | 490 kts | 102° |
| 2026-04-25 21:36 | 42.65766 | -3.31822 | 38227 ft | 490 kts | 102° |
| 2026-04-25 21:37 | 42.64586 | -3.24293 | 38226 ft | 490 kts | 102° |
| 2026-04-25 21:37 | 42.62918 | -3.13710 | 38223 ft | 490 kts | 103° |
| 2026-04-25 21:38 | 42.61481 | -3.04649 | 38222 ft | 491 kts | 103° |
| 2026-04-25 21:38 | 42.60037 | -2.95587 | 38219 ft | 491 kts | 103° |
| 2026-04-25 21:39 | 42.58596 | -2.86592 | 38218 ft | 491 kts | 103° |
| 2026-04-25 21:39 | 42.57127 | -2.77479 | 38215 ft | 491 kts | 103° |
| 2026-04-25 21:40 | 42.55671 | -2.68488 | 38205 ft | 491 kts | 103° |
| 2026-04-25 21:40 | 42.54199 | -2.59444 | 38196 ft | 491 kts | 103° |
| 2026-04-25 21:41 | 42.52721 | -2.50416 | 38186 ft | 491 kts | 103° |
| 2026-04-25 21:41 | 42.51236 | -2.41389 | 38178 ft | 490 kts | 103° |
| 2026-04-25 21:42 | 42.49749 | -2.32365 | 38173 ft | 490 kts | 103° |
| 2026-04-25 21:42 | 42.48286 | -2.23337 | 38172 ft | 491 kts | 104° |
| 2026-04-25 21:43 | 42.46771 | -2.14331 | 38173 ft | 490 kts | 104° |
| 2026-04-25 21:43 | 42.45245 | -2.05340 | 38175 ft | 490 kts | 104° |
| 2026-04-25 21:44 | 42.43714 | -1.96345 | 38174 ft | 490 kts | 104° |
| 2026-04-25 21:45 | 42.41687 | -1.82801 | 38172 ft | 490 kts | 100° |
| 2026-04-25 21:45 | 42.40594 | -1.73700 | 38169 ft | 490 kts | 100° |
| 2026-04-25 21:46 | 42.39457 | -1.64605 | 38165 ft | 490 kts | 101° |
| 2026-04-25 21:46 | 42.38299 | -1.55516 | 38159 ft | 490 kts | 101° |
| 2026-04-25 21:47 | 42.37128 | -1.46418 | 38153 ft | 490 kts | 101° |
| 2026-04-25 21:47 | 42.36011 | -1.37318 | 38149 ft | 491 kts | 100° |
| 2026-04-25 21:48 | 42.34870 | -1.28217 | 38148 ft | 491 kts | 101° |
| 2026-04-25 21:48 | 42.33712 | -1.19192 | 38149 ft | 491 kts | 101° |
| 2026-04-25 21:49 | 42.32531 | -1.10093 | 38150 ft | 491 kts | 101° |
| 2026-04-25 21:49 | 42.31342 | -1.01006 | 38151 ft | 491 kts | 101° |
| 2026-04-25 21:50 | 42.30144 | -0.91905 | 38163 ft | 491 kts | 101° |
| 2026-04-25 21:50 | 42.28941 | -0.82828 | 38167 ft | 491 kts | 101° |
| 2026-04-25 21:51 | 42.27729 | -0.73737 | 38167 ft | 492 kts | 101° |
| 2026-04-25 21:51 | 42.26527 | -0.64647 | 38168 ft | 492 kts | 101° |
| 2026-04-25 21:52 | 42.25325 | -0.55561 | 38169 ft | 492 kts | 101° |
| 2026-04-25 21:52 | 42.24080 | -0.46490 | 38173 ft | 492 kts | 101° |
| 2026-04-25 21:53 | 42.22822 | -0.37410 | 38172 ft | 492 kts | 101° |
| 2026-04-25 21:53 | 42.21565 | -0.28345 | 38172 ft | 492 kts | 101° |
| 2026-04-25 21:54 | 42.20692 | -0.19187 | 38173 ft | 492 kts | 95° |
| 2026-04-25 21:54 | 42.20340 | -0.10017 | 38173 ft | 493 kts | 93° |
| 2026-04-25 21:55 | 42.19977 | -0.00707 | 38172 ft | 495 kts | 94° |
| 2026-04-25 21:55 | 42.19577 | 0.08489 | 38170 ft | 492 kts | 94° |
| 2026-04-25 21:56 | 42.19161 | 0.17671 | 38168 ft | 490 kts | 94° |
| 2026-04-25 21:56 | 42.18778 | 0.26848 | 38165 ft | 491 kts | 94° |
| 2026-04-25 21:57 | 42.18397 | 0.36063 | 38165 ft | 492 kts | 94° |
| 2026-04-25 21:57 | 42.17983 | 0.45271 | 38163 ft | 492 kts | 94° |
| 2026-04-25 21:58 | 42.17554 | 0.54495 | 38162 ft | 492 kts | 94° |
| 2026-04-25 21:58 | 42.17118 | 0.63643 | 38157 ft | 492 kts | 94° |
| 2026-04-25 21:59 | 42.16671 | 0.72872 | 38159 ft | 494 kts | 94° |
| 2026-04-25 21:59 | 42.16216 | 0.82102 | 38160 ft | 494 kts | 94° |
| 2026-04-25 22:00 | 42.15558 | 0.95964 | 38163 ft | 494 kts | 94° |
| 2026-04-25 22:00 | 42.15083 | 1.05207 | 38165 ft | 495 kts | 95° |
| 2026-04-25 22:01 | 42.14584 | 1.14482 | 38167 ft | 496 kts | 95° |
| 2026-04-25 22:01 | 42.14165 | 1.22186 | 38167 ft | 496 kts | 95° |
| 2026-04-25 22:02 | 42.13575 | 1.33013 | 38168 ft | 496 kts | 95° |
| 2026-04-25 22:02 | 42.12935 | 1.42206 | 38168 ft | 496 kts | 96° |
| 2026-04-25 22:03 | 42.12241 | 1.51455 | 38169 ft | 496 kts | 96° |
| 2026-04-25 22:03 | 42.11549 | 1.60697 | 38168 ft | 495 kts | 96° |
| 2026-04-25 22:04 | 42.10853 | 1.69917 | 38166 ft | 495 kts | 96° |
| 2026-04-25 22:04 | 42.10155 | 1.79148 | 38165 ft | 495 kts | 96° |
| 2026-04-25 22:05 | 42.09523 | 1.88390 | 38156 ft | 496 kts | 96° |
| 2026-04-25 22:05 | 42.08853 | 1.97630 | 38152 ft | 496 kts | 96° |
| 2026-04-25 22:06 | 42.08160 | 2.06861 | 38149 ft | 496 kts | 96° |
| 2026-04-25 22:06 | 42.07808 | 2.11486 | 38148 ft | 496 kts | 96° |
| 2026-04-25 22:07 | 42.07535 | 2.15045 | 38146 ft | 496 kts | 96° |
| 2026-04-25 22:07 | 42.06704 | 2.25769 | 38143 ft | 496 kts | 96° |
| 2026-04-25 22:08 | 42.05981 | 2.35002 | 38142 ft | 496 kts | 96° |
| 2026-04-25 22:08 | 42.05251 | 2.44216 | 38141 ft | 496 kts | 96° |
| 2026-04-25 22:09 | 42.04513 | 2.53436 | 38141 ft | 496 kts | 96° |
| 2026-04-25 22:09 | 42.03768 | 2.62653 | 38141 ft | 496 kts | 96° |
| 2026-04-25 22:10 | 42.03014 | 2.71881 | 38141 ft | 497 kts | 96° |
| 2026-04-25 22:10 | 42.02251 | 2.81126 | 38141 ft | 497 kts | 96° |
| 2026-04-25 22:11 | 42.01481 | 2.90366 | 38140 ft | 496 kts | 97° |
| 2026-04-25 22:11 | 42.00705 | 2.99587 | 38139 ft | 496 kts | 97° |
| 2026-04-25 22:12 | 41.99923 | 3.08794 | 38138 ft | 495 kts | 97° |
| 2026-04-25 22:12 | 41.99402 | 3.14877 | 38137 ft | 494 kts | 97° |
| 2026-04-25 22:13 | 41.98342 | 3.27139 | 38136 ft | 493 kts | 97° |
| 2026-04-25 22:13 | 41.97542 | 3.36298 | 38134 ft | 494 kts | 97° |
| 2026-04-25 22:14 | 41.96739 | 3.45401 | 38132 ft | 494 kts | 97° |
| 2026-04-25 22:14 | 41.95952 | 3.54566 | 38131 ft | 494 kts | 96° |
| 2026-04-25 22:15 | 41.95141 | 3.63730 | 38130 ft | 494 kts | 97° |
| 2026-04-25 22:16 | 41.93871 | 3.77462 | 38129 ft | 494 kts | 97° |
| 2026-04-25 22:16 | 41.93018 | 3.86610 | 38128 ft | 494 kts | 97° |
| 2026-04-25 22:16 | 41.92938 | 3.91208 | 38120 ft | 493 kts | 83° |
| 2026-04-25 22:17 | 41.93353 | 3.94195 | 38133 ft | 493 kts | 76° |
| 2026-04-25 22:17 | 41.95477 | 4.02982 | 38131 ft | 494 kts | 68° |
| 2026-04-25 22:18 | 41.98250 | 4.11411 | 38130 ft | 493 kts | 65° |
| 2026-04-25 22:18 | 42.01023 | 4.19842 | 38130 ft | 493 kts | 66° |
| 2026-04-25 22:19 | 42.03728 | 4.28259 | 38127 ft | 493 kts | 66° |
| 2026-04-25 22:19 | 42.06504 | 4.36691 | 38108 ft | 492 kts | 60° |
| 2026-04-25 22:20 | 42.10008 | 4.44612 | 38119 ft | 492 kts | 58° |
| 2026-04-25 22:20 | 42.13588 | 4.52475 | 38118 ft | 492 kts | 58° |
| 2026-04-25 22:21 | 42.17157 | 4.60344 | 38117 ft | 492 kts | 58° |
| 2026-04-25 22:21 | 42.20723 | 4.68230 | 38116 ft | 493 kts | 58° |
| 2026-04-25 22:22 | 42.24288 | 4.76137 | 38115 ft | 493 kts | 58° |
| 2026-04-25 22:22 | 42.27821 | 4.83998 | 38119 ft | 493 kts | 58° |
| 2026-04-25 22:23 | 42.31380 | 4.91931 | 38122 ft | 493 kts | 58° |
| 2026-04-25 22:23 | 42.34930 | 4.99868 | 38120 ft | 493 kts | 58° |
| 2026-04-25 22:24 | 42.38474 | 5.07813 | 38120 ft | 493 kts | 58° |
| 2026-04-25 22:24 | 42.42010 | 5.15762 | 38119 ft | 493 kts | 58° |
| 2026-04-25 22:25 | 42.45518 | 5.23669 | 38119 ft | 493 kts | 58° |
| 2026-04-25 22:25 | 42.49044 | 5.31637 | 38118 ft | 493 kts | 58° |
| 2026-04-25 22:26 | 42.52562 | 5.39608 | 38117 ft | 493 kts | 58° |
| 2026-04-25 22:26 | 42.56074 | 5.47590 | 38116 ft | 492 kts | 58° |
| 2026-04-25 22:27 | 42.59582 | 5.55581 | 38115 ft | 492 kts | 58° |
| 2026-04-25 22:27 | 42.63080 | 5.63573 | 38114 ft | 492 kts | 58° |
| 2026-04-25 22:28 | 42.66574 | 5.71578 | 38114 ft | 493 kts | 58° |
| 2026-04-25 22:28 | 42.70066 | 5.79598 | 38114 ft | 493 kts | 58° |
| 2026-04-25 22:29 | 42.73552 | 5.87628 | 38113 ft | 493 kts | 58° |
| 2026-04-25 22:29 | 42.77034 | 5.95669 | 38113 ft | 493 kts | 58° |
| 2026-04-25 22:30 | 42.82232 | 6.07715 | 38112 ft | 493 kts | 59° |
| 2026-04-25 22:30 | 42.85134 | 6.14462 | 38112 ft | 493 kts | 59° |
| 2026-04-25 22:31 | 42.89157 | 6.23842 | 38112 ft | 493 kts | 59° |
| 2026-04-25 22:31 | 42.92615 | 6.31928 | 38112 ft | 493 kts | 59° |
| 2026-04-25 22:32 | 42.96064 | 6.40015 | 38112 ft | 493 kts | 59° |
| 2026-04-25 22:32 | 42.99507 | 6.48112 | 38113 ft | 493 kts | 59° |
| 2026-04-25 22:33 | 43.02946 | 6.56218 | 38113 ft | 493 kts | 59° |
| 2026-04-25 22:33 | 43.06373 | 6.64322 | 38113 ft | 493 kts | 59° |
| 2026-04-25 22:34 | 43.09794 | 6.72435 | 38113 ft | 492 kts | 59° |
| 2026-04-25 22:34 | 43.13213 | 6.80564 | 38112 ft | 492 kts | 59° |
| 2026-04-25 22:35 | 43.16628 | 6.88704 | 38113 ft | 493 kts | 59° |
| 2026-04-25 22:35 | 43.20018 | 6.96812 | 38112 ft | 493 kts | 59° |
| 2026-04-25 22:36 | 43.23444 | 7.05025 | 38113 ft | 493 kts | 59° |
| 2026-04-25 22:36 | 43.26819 | 7.13142 | 38113 ft | 493 kts | 59° |
| 2026-04-25 22:37 | 43.30212 | 7.21324 | 38113 ft | 493 kts | 59° |
| 2026-04-25 22:37 | 43.33594 | 7.29501 | 38116 ft | 492 kts | 59° |
| 2026-04-25 22:38 | 43.36969 | 7.37687 | 38116 ft | 492 kts | 59° |
| 2026-04-25 22:38 | 43.40343 | 7.45890 | 38116 ft | 493 kts | 59° |
| 2026-04-25 22:39 | 43.43709 | 7.54100 | 38118 ft | 493 kts | 59° |
| 2026-04-25 22:39 | 43.47076 | 7.62334 | 38119 ft | 493 kts | 59° |
| 2026-04-25 22:40 | 43.50429 | 7.70560 | 38121 ft | 493 kts | 59° |
| 2026-04-25 22:40 | 43.53779 | 7.78801 | 38124 ft | 493 kts | 59° |
| 2026-04-25 22:41 | 43.57127 | 7.87060 | 38125 ft | 493 kts | 59° |
| 2026-04-25 22:41 | 43.60446 | 7.95272 | 38128 ft | 493 kts | 59° |
| 2026-04-25 22:42 | 43.63779 | 8.03543 | 38131 ft | 493 kts | 59° |
| 2026-04-25 22:42 | 43.67116 | 8.11845 | 38131 ft | 494 kts | 59° |
| 2026-04-25 22:43 | 43.70446 | 8.20155 | 38130 ft | 493 kts | 59° |
| 2026-04-25 22:43 | 43.73743 | 8.28408 | 38137 ft | 494 kts | 59° |
| 2026-04-25 22:44 | 43.77059 | 8.36729 | 38137 ft | 494 kts | 59° |
| 2026-04-25 22:44 | 43.81086 | 8.44356 | 38129 ft | 491 kts | 47° |
| 2026-04-25 22:45 | 43.85632 | 8.51414 | 38136 ft | 490 kts | 46° |
| 2026-04-25 22:45 | 43.90185 | 8.58454 | 38134 ft | 490 kts | 46° |
| 2026-04-25 22:46 | 43.94735 | 8.65512 | 38132 ft | 490 kts | 46° |
| 2026-04-25 22:46 | 43.99278 | 8.72582 | 38116 ft | 491 kts | 46° |
| 2026-04-25 22:47 | 44.03820 | 8.79666 | 38114 ft | 492 kts | 46° |
| 2026-04-25 22:47 | 44.08351 | 8.86752 | 38122 ft | 493 kts | 46° |
| 2026-04-25 22:48 | 44.12909 | 8.93899 | 38119 ft | 493 kts | 46° |
| 2026-04-25 22:48 | 44.17456 | 9.01047 | 38118 ft | 493 kts | 46° |
| 2026-04-25 22:49 | 44.22014 | 9.08228 | 38117 ft | 494 kts | 46° |
| 2026-04-25 22:49 | 44.26564 | 9.15416 | 38117 ft | 494 kts | 46° |
| 2026-04-25 22:50 | 44.31114 | 9.22624 | 38117 ft | 495 kts | 46° |
| 2026-04-25 22:50 | 44.35665 | 9.29850 | 38114 ft | 495 kts | 46° |
| 2026-04-25 22:51 | 44.40213 | 9.37090 | 38111 ft | 496 kts | 46° |
| 2026-04-25 22:51 | 44.44759 | 9.44345 | 38104 ft | 496 kts | 46° |
| 2026-04-25 22:52 | 44.49274 | 9.51570 | 38099 ft | 495 kts | 47° |
| 2026-04-25 22:52 | 44.53078 | 9.57671 | 38094 ft | 495 kts | 47° |
| 2026-04-25 22:53 | 44.58347 | 9.66144 | 38086 ft | 496 kts | 47° |
| 2026-04-25 22:53 | 44.62875 | 9.73445 | 38078 ft | 496 kts | 47° |
| 2026-04-25 22:54 | 44.67406 | 9.80771 | 38067 ft | 497 kts | 47° |
| 2026-04-25 22:54 | 44.71929 | 9.88102 | 38057 ft | 496 kts | 47° |
| 2026-04-25 22:55 | 44.76444 | 9.95440 | 38047 ft | 496 kts | 47° |
| 2026-04-25 22:55 | 44.80957 | 10.02794 | 38047 ft | 496 kts | 47° |
| 2026-04-25 22:56 | 44.85477 | 10.10177 | 38028 ft | 498 kts | 47° |
| 2026-04-25 22:56 | 44.89973 | 10.17541 | 38025 ft | 498 kts | 47° |
| 2026-04-25 22:57 | 44.94483 | 10.24948 | 38024 ft | 498 kts | 47° |
| 2026-04-25 22:57 | 44.98996 | 10.32380 | 38029 ft | 498 kts | 47° |
| 2026-04-25 22:58 | 45.03506 | 10.39825 | 38041 ft | 498 kts | 47° |
| 2026-04-25 22:58 | 45.08004 | 10.47271 | 38048 ft | 498 kts | 47° |
| 2026-04-25 22:59 | 45.12508 | 10.54745 | 38052 ft | 499 kts | 47° |
| 2026-04-25 22:59 | 45.17006 | 10.62231 | 38047 ft | 499 kts | 47° |
| 2026-04-25 23:00 | 45.21497 | 10.69725 | 38048 ft | 499 kts | 47° |
| 2026-04-25 23:00 | 45.25983 | 10.77230 | 38050 ft | 499 kts | 47° |
| 2026-04-25 23:01 | 45.30466 | 10.84751 | 38052 ft | 499 kts | 47° |
| 2026-04-25 23:01 | 45.34954 | 10.92300 | 38053 ft | 500 kts | 47° |
| 2026-04-25 23:02 | 45.37682 | 10.96898 | 38054 ft | 500 kts | 47° |
| 2026-04-25 23:02 | 45.39707 | 11.00317 | 38054 ft | 500 kts | 47° |
| 2026-04-25 23:03 | 45.44156 | 11.07841 | 38056 ft | 500 kts | 47° |
| 2026-04-25 23:03 | 45.48639 | 11.15444 | 38061 ft | 501 kts | 47° |
| 2026-04-25 23:04 | 45.52396 | 11.21832 | 38065 ft | 501 kts | 47° |
| 2026-04-25 23:04 | 45.56872 | 11.29461 | 38070 ft | 502 kts | 47° |
| 2026-04-25 23:05 | 45.61322 | 11.37066 | 38074 ft | 503 kts | 47° |
| 2026-04-25 23:05 | 45.65808 | 11.44755 | 38073 ft | 503 kts | 47° |
| 2026-04-25 23:06 | 45.70287 | 11.52451 | 38093 ft | 503 kts | 47° |
| 2026-04-25 23:06 | 45.74763 | 11.60164 | 38095 ft | 504 kts | 47° |
| 2026-04-25 23:07 | 45.79241 | 11.67903 | 38092 ft | 505 kts | 47° |
| 2026-04-25 23:07 | 45.83720 | 11.75664 | 38076 ft | 505 kts | 47° |
| 2026-04-25 23:08 | 45.88192 | 11.83435 | 38081 ft | 505 kts | 47° |
| 2026-04-25 23:08 | 45.92661 | 11.91223 | 38089 ft | 505 kts | 47° |
| 2026-04-25 23:09 | 45.97131 | 11.99032 | 38101 ft | 505 kts | 47° |
| 2026-04-25 23:09 | 46.01564 | 12.06799 | 38114 ft | 505 kts | 47° |
| 2026-04-25 23:10 | 46.06019 | 12.14627 | 38110 ft | 505 kts | 48° |
| 2026-04-25 23:10 | 46.10469 | 12.22469 | 38122 ft | 505 kts | 48° |
| 2026-04-25 23:11 | 46.14910 | 12.30317 | 38118 ft | 505 kts | 48° |
| 2026-04-25 23:11 | 46.19352 | 12.38188 | 38095 ft | 505 kts | 48° |
| 2026-04-25 23:12 | 46.23778 | 12.46053 | 38096 ft | 505 kts | 48° |
| 2026-04-25 23:12 | 46.28176 | 12.53889 | 38099 ft | 505 kts | 48° |
| 2026-04-25 23:13 | 46.32596 | 12.61789 | 38101 ft | 505 kts | 48° |
| 2026-04-25 23:13 | 46.37007 | 12.69692 | 38103 ft | 504 kts | 48° |
| 2026-04-25 23:14 | 46.41408 | 12.77601 | 38104 ft | 504 kts | 48° |
| 2026-04-25 23:14 | 46.45806 | 12.85526 | 38106 ft | 504 kts | 48° |
| 2026-04-25 23:15 | 46.50232 | 12.93431 | 38107 ft | 504 kts | 47° |
| 2026-04-25 23:15 | 46.54646 | 13.01356 | 38108 ft | 504 kts | 48° |
| 2026-04-25 23:16 | 46.58860 | 13.09427 | 38090 ft | 506 kts | 56° |
| 2026-04-25 23:16 | 46.61784 | 13.18783 | 38091 ft | 511 kts | 65° |
| 2026-04-25 23:17 | 46.64471 | 13.28383 | 38085 ft | 512 kts | 66° |
| 2026-04-25 23:17 | 46.67140 | 13.38000 | 38090 ft | 512 kts | 66° |
| 2026-04-25 23:18 | 46.69804 | 13.47632 | 38072 ft | 513 kts | 66° |
| 2026-04-25 23:18 | 46.72465 | 13.57284 | 38068 ft | 513 kts | 66° |
| 2026-04-25 23:19 | 46.75117 | 13.66941 | 38067 ft | 513 kts | 66° |
| 2026-04-25 23:19 | 46.77761 | 13.76609 | 38065 ft | 513 kts | 66° |
| 2026-04-25 23:20 | 46.80396 | 13.86282 | 38064 ft | 513 kts | 66° |
| 2026-04-25 23:20 | 46.83024 | 13.95967 | 38063 ft | 513 kts | 66° |
| 2026-04-25 23:21 | 46.85628 | 14.05603 | 38062 ft | 514 kts | 66° |
| 2026-04-25 23:21 | 46.88244 | 14.15327 | 38022 ft | 514 kts | 66° |
| 2026-04-25 23:22 | 46.89552 | 14.20202 | 37715 ft | 514 kts | 66° |
| 2026-04-25 23:22 | 46.90857 | 14.25077 | 37330 ft | 515 kts | 66° |
| 2026-04-25 23:22 | 46.92162 | 14.29959 | 36962 ft | 516 kts | 66° |
| 2026-04-25 23:23 | 46.94751 | 14.39680 | 36278 ft | 508 kts | 66° |
| 2026-04-25 23:23 | 46.96020 | 14.44462 | 35742 ft | 502 kts | 66° |
| 2026-04-25 23:23 | 46.97278 | 14.49207 | 35153 ft | 498 kts | 66° |
| 2026-04-25 23:23 | 46.98525 | 14.53922 | 34586 ft | 494 kts | 66° |
| 2026-04-25 23:24 | 46.99755 | 14.58583 | 34031 ft | 490 kts | 66° |
| 2026-04-25 23:24 | 47.00977 | 14.63223 | 33470 ft | 486 kts | 66° |
| 2026-04-25 23:24 | 47.02185 | 14.67817 | 32911 ft | 482 kts | 67° |
| 2026-04-25 23:24 | 47.03386 | 14.72393 | 32315 ft | 479 kts | 67° |
| 2026-04-25 23:25 | 47.04575 | 14.76936 | 31770 ft | 475 kts | 67° |
| 2026-04-25 23:25 | 47.05753 | 14.81442 | 31199 ft | 472 kts | 67° |
| 2026-04-25 23:25 | 47.06925 | 14.85936 | 30613 ft | 469 kts | 67° |
| 2026-04-25 23:25 | 47.08083 | 14.90384 | 30081 ft | 465 kts | 67° |
| 2026-04-25 23:26 | 47.09232 | 14.94807 | 29531 ft | 462 kts | 67° |
| 2026-04-25 23:26 | 47.10372 | 14.99200 | 29032 ft | 457 kts | 67° |
| 2026-04-25 23:26 | 47.11499 | 15.03554 | 28498 ft | 454 kts | 67° |
| 2026-04-25 23:26 | 47.12615 | 15.07873 | 27980 ft | 450 kts | 67° |
| 2026-04-25 23:27 | 47.13718 | 15.12152 | 27457 ft | 446 kts | 67° |
| 2026-04-25 23:27 | 47.14814 | 15.16409 | 26921 ft | 443 kts | 67° |
| 2026-04-25 23:27 | 47.15881 | 15.20560 | 26410 ft | 440 kts | 67° |
| 2026-04-25 23:27 | 47.16954 | 15.24744 | 25917 ft | 435 kts | 67° |
| 2026-04-25 23:28 | 47.18017 | 15.28897 | 25396 ft | 432 kts | 67° |
| 2026-04-25 23:28 | 47.19068 | 15.33009 | 24901 ft | 428 kts | 67° |
| 2026-04-25 23:28 | 47.20111 | 15.37094 | 24369 ft | 425 kts | 67° |
| 2026-04-25 23:28 | 47.21143 | 15.41148 | 23901 ft | 421 kts | 67° |
| 2026-04-25 23:29 | 47.22165 | 15.45164 | 23371 ft | 418 kts | 67° |
| 2026-04-25 23:29 | 47.23178 | 15.49158 | 22886 ft | 414 kts | 67° |
| 2026-04-25 23:29 | 47.24180 | 15.53107 | 22378 ft | 411 kts | 67° |
| 2026-04-25 23:29 | 47.25175 | 15.57041 | 21861 ft | 408 kts | 67° |
| 2026-04-25 23:30 | 47.26176 | 15.60923 | 21403 ft | 403 kts | 66° |
| 2026-04-25 23:30 | 47.27191 | 15.64768 | 20885 ft | 401 kts | 66° |
| 2026-04-25 23:30 | 47.28173 | 15.68590 | 20392 ft | 398 kts | 66° |
| 2026-04-25 23:30 | 47.29190 | 15.72355 | 19920 ft | 392 kts | 60° |
| 2026-04-25 23:31 | 47.30638 | 15.75705 | 19405 ft | 384 kts | 47° |
| 2026-04-25 23:31 | 47.32329 | 15.78732 | 18863 ft | 382 kts | 47° |
| 2026-04-25 23:31 | 47.34002 | 15.81693 | 18418 ft | 378 kts | 46° |
| 2026-04-25 23:31 | 47.35700 | 15.84691 | 17940 ft | 375 kts | 46° |
| 2026-04-25 23:32 | 47.37344 | 15.87601 | 17456 ft | 373 kts | 46° |
| 2026-04-25 23:32 | 47.38998 | 15.90533 | 16981 ft | 370 kts | 46° |
| 2026-04-25 23:32 | 47.40638 | 15.93446 | 16489 ft | 368 kts | 46° |
| 2026-04-25 23:32 | 47.42264 | 15.96339 | 16028 ft | 365 kts | 46° |
| 2026-04-25 23:33 | 47.43879 | 15.99217 | 15535 ft | 363 kts | 46° |
| 2026-04-25 23:33 | 47.45475 | 16.02063 | 15075 ft | 360 kts | 46° |
| 2026-04-25 23:33 | 47.47074 | 16.04917 | 14592 ft | 358 kts | 46° |
| 2026-04-25 23:33 | 47.48654 | 16.07739 | 14159 ft | 354 kts | 46° |
| 2026-04-25 23:34 | 47.50222 | 16.10547 | 13608 ft | 355 kts | 46° |
| 2026-04-25 23:34 | 47.51748 | 16.13280 | 13268 ft | 348 kts | 46° |
| 2026-04-25 23:34 | 47.53312 | 16.16087 | 12833 ft | 345 kts | 47° |
| 2026-04-25 23:34 | 47.54835 | 16.18821 | 12387 ft | 343 kts | 47° |
| 2026-04-25 23:35 | 47.56353 | 16.21553 | 11849 ft | 344 kts | 47° |
| 2026-04-25 23:35 | 47.57877 | 16.24295 | 11385 ft | 343 kts | 47° |
| 2026-04-25 23:35 | 47.59379 | 16.26996 | 11039 ft | 337 kts | 47° |
| 2026-04-25 23:35 | 47.60854 | 16.29656 | 10729 ft | 330 kts | 47° |
| 2026-04-25 23:36 | 47.62285 | 16.32229 | 10558 ft | 319 kts | 47° |
| 2026-04-25 23:36 | 47.63212 | 16.33905 | 10359 ft | 315 kts | 46° |
| 2026-04-25 23:36 | 47.65039 | 16.37206 | 9824 ft | 312 kts | 46° |
| 2026-04-25 23:36 | 47.66394 | 16.39654 | 9628 ft | 301 kts | 46° |
| 2026-04-25 23:37 | 47.67694 | 16.42009 | 9501 ft | 289 kts | 46° |
| 2026-04-25 23:37 | 47.68937 | 16.44265 | 9363 ft | 277 kts | 46° |
| 2026-04-25 23:37 | 47.70136 | 16.46440 | 9194 ft | 267 kts | 46° |
| 2026-04-25 23:37 | 47.71320 | 16.48548 | 8889 ft | 265 kts | 45° |
| 2026-04-25 23:38 | 47.72500 | 16.50657 | 8476 ft | 266 kts | 45° |
| 2026-04-25 23:38 | 47.73682 | 16.52791 | 8066 ft | 267 kts | 45° |
| 2026-04-25 23:38 | 47.74861 | 16.54933 | 7800 ft | 267 kts | 45° |
| 2026-04-25 23:38 | 47.76028 | 16.57059 | 7548 ft | 264 kts | 45° |
| 2026-04-25 23:39 | 47.77175 | 16.59160 | 7295 ft | 260 kts | 46° |
| 2026-04-25 23:39 | 47.78305 | 16.61229 | 7085 ft | 255 kts | 46° |
| 2026-04-25 23:39 | 47.79422 | 16.63279 | 7022 ft | 257 kts | 46° |
| 2026-04-25 23:39 | 47.80549 | 16.65349 | 7005 ft | 257 kts | 46° |
| 2026-04-25 23:40 | 47.81677 | 16.67419 | 6986 ft | 258 kts | 46° |
| 2026-04-25 23:40 | 47.82802 | 16.69481 | 6778 ft | 255 kts | 46° |
| 2026-04-25 23:40 | 47.83920 | 16.71537 | 6398 ft | 256 kts | 45° |
| 2026-04-25 23:40 | 47.85227 | 16.73278 | 6052 ft | 249 kts | 30° |
| 2026-04-25 23:41 | 47.86688 | 16.74618 | 5745 ft | 245 kts | 25° |
| 2026-04-25 23:41 | 47.88170 | 16.75849 | 5423 ft | 243 kts | 23° |
| 2026-04-25 23:41 | 47.89660 | 16.77046 | 5099 ft | 242 kts | 23° |
| 2026-04-25 23:41 | 47.91133 | 16.78223 | 4788 ft | 238 kts | 23° |
| 2026-04-25 23:42 | 47.92585 | 16.79373 | 4491 ft | 232 kts | 23° |
| 2026-04-25 23:42 | 47.93976 | 16.80459 | 4263 ft | 220 kts | 22° |
| 2026-04-25 23:42 | 47.95313 | 16.81495 | 3954 ft | 214 kts | 23° |
| 2026-04-25 23:42 | 47.96634 | 16.82525 | 3512 ft | 214 kts | 23° |
| 2026-04-25 23:43 | 47.97974 | 16.83376 | 3244 ft | 211 kts | 7° |
| 2026-04-25 23:43 | 47.99397 | 16.83143 | 3059 ft | 207 kts | 337° |
| 2026-04-25 23:43 | 48.00633 | 16.82115 | 2974 ft | 196 kts | 327° |
| 2026-04-25 23:43 | 48.01712 | 16.81050 | 2939 ft | 180 kts | 324° |
| 2026-04-25 23:44 | 48.02732 | 16.80015 | 2971 ft | 177 kts | 323° |
| 2026-04-25 23:44 | 48.03745 | 16.78963 | 2984 ft | 177 kts | 318° |
| 2026-04-25 23:44 | 48.04522 | 16.77542 | 3007 ft | 179 kts | 301° |
| 2026-04-25 23:44 | 48.05059 | 16.75882 | 3009 ft | 176 kts | 294° |
| 2026-04-25 23:45 | 48.05535 | 16.74197 | 3014 ft | 175 kts | 294° |
| 2026-04-25 23:45 | 48.06009 | 16.72626 | 2900 ft | 159 kts | 295° |
| 2026-04-25 23:45 | 48.06478 | 16.71154 | 2609 ft | 155 kts | 295° |
| 2026-04-25 23:45 | 48.06945 | 16.69714 | 2420 ft | 153 kts | 295° |
| 2026-04-25 23:46 | 48.07411 | 16.68285 | 2193 ft | 153 kts | 295° |
| 2026-04-25 23:46 | 48.07877 | 16.66853 | 1970 ft | 154 kts | 295° |
| 2026-04-25 23:46 | 48.08347 | 16.65411 | 1774 ft | 154 kts | 294° |
| 2026-04-25 23:46 | 48.08800 | 16.64004 | 1547 ft | 146 kts | 293° |
| 2026-04-25 23:47 | 48.09232 | 16.62659 | 1356 ft | 142 kts | 290° |
| 2026-04-25 23:47 | 48.09675 | 16.61348 | 1149 ft | 140 kts | 293° |
| 2026-04-25 23:47 | 48.10093 | 16.60057 | 990 ft | 139 kts | 290° |
| 2026-04-25 23:47 | 48.10385 | 16.59188 | 848 ft | 138 kts | 289° |
| 2026-04-25 23:48 | 48.10936 | 16.57478 | 633 ft | 135 kts | 287° |
| 2026-04-25 23:48 | 48.11313 | 16.56313 | 614 ft | 104 kts | 294° |
| 2026-04-25 23:48 | 48.11533 | 16.55635 | 613 ft | 41 kts | 295° |
| 2026-04-25 23:48 | 48.11641 | 16.55379 | 613 ft | 22 kts | 315° |
| 2026-04-25 23:49 | 48.11719 | 16.55266 | 613 ft | 13 kts | 316° |
| 2026-04-25 23:49 | 48.11745 | 16.55230 | 613 ft | 3 kts | 317° |
| 2026-04-25 23:49 | 48.11759 | 16.55211 | 613 ft | 3 kts | 318° |
| 2026-04-25 23:49 | 48.11782 | 16.55187 | 613 ft | 6 kts | 330° |
| 2026-04-25 23:50 | 48.11804 | 16.55174 | 613 ft | 3 kts | 346° |
| 2026-04-25 23:50 | 48.11821 | 16.55169 | 613 ft | 2 kts | 349° |
| 2026-04-25 23:50 | 48.11838 | 16.55167 | 613 ft | 2 kts | 5° |
| 2026-04-25 23:50 | 48.11848 | 16.55168 | 613 ft | 2 kts | 5° |
| 2026-04-25 23:51 | 48.11863 | 16.55171 | 613 ft | 3 kts | 12° |
| 2026-04-25 23:51 | 48.11866 | 16.55259 | 613 ft | 18 kts | 118° |
| 2026-04-25 23:51 | 48.11825 | 16.55386 | 613 ft | 4 kts | 116° |
| 2026-04-25 23:51 | 48.11811 | 16.55428 | 613 ft | 5 kts | 116° |
| 2026-04-25 23:52 | 48.11767 | 16.55558 | 613 ft | 19 kts | 116° |
| 2026-04-25 23:52 | 48.11722 | 16.55695 | 613 ft | 5 kts | 116° |
| 2026-04-25 23:52 | 48.11711 | 16.55741 | 613 ft | 5 kts | 103° |
| 2026-04-25 23:52 | 48.11723 | 16.55781 | 613 ft | 5 kts | 34° |
| 2026-04-25 23:53 | 48.11752 | 16.55809 | 613 ft | 8 kts | 32° |
| 2026-04-25 23:53 | 48.11784 | 16.55872 | 613 ft | 8 kts | 76° |
| 2026-04-25 23:53 | 48.11794 | 16.55944 | 613 ft | 3 kts | 79° |
| 2026-04-25 23:53 | 48.11798 | 16.55975 | 613 ft | 3 kts | 79° |
| 2026-04-25 23:54 | 48.11799 | 16.55979 | 613 ft | 0 kts | 79° |
| 2026-04-25 23:54 | 48.11800 | 16.55984 | 613 ft | 2 kts | 79° |
| 2026-04-25 23:54 | 48.11801 | 16.55993 | 613 ft | 0 kts | 79° |